<?xml version="1.0" encoding="UTF-8" standalone="no" ?>
<gpx xmlns="http://www.topografix.com/GPX/1/1" xmlns:xsi="http://www.w3.org/2001/XMLSchema-instance" xsi:schemaLocation="http://www.topografix.com/GPX/1/1 http://www.topografix.com/GPX/1/1/gpx.xsd" version="1.1" creator="VisuGPX - https://www.visugpx.com">
  <metadata>
    <name>Les moulins du Vidourle et ruines de Montredon</name>
    <desc><![CDATA[[url]https://www.visorando.com/randonnee-les-moulins-du-vidourle-et-ruines-de-mon/[/url]
#fait]]></desc>
  </metadata>
  <wpt lat="43.78672" lon="4.08567">
    <ele>29</ele>
    <name><![CDATA[Esplanade rive gauche du Vidourle]]></name>
  </wpt>
  <wpt lat="43.79075" lon="4.07447">
    <ele>70</ele>
    <name><![CDATA[Bifurcation]]></name>
  </wpt>
  <wpt lat="43.79288" lon="4.07246">
    <ele>39</ele>
    <name><![CDATA[À gauche, Chemin du Mas d' Arqual]]></name>
  </wpt>
  <wpt lat="43.793" lon="4.06665">
    <ele>34</ele>
    <name><![CDATA[A droite Chemin de la Fontaine]]></name>
  </wpt>
  <wpt lat="43.80117" lon="4.06986">
    <ele>42</ele>
    <name><![CDATA[Chapelle Saint-Julien de  Montredon]]></name>
  </wpt>
  <wpt lat="43.80881" lon="4.0694">
    <ele>43</ele>
    <name><![CDATA[Lavoir et noria]]></name>
  </wpt>
  <wpt lat="43.81172" lon="4.06752">
    <ele>46</ele>
    <name><![CDATA[ À gauche à la patte d'oie]]></name>
  </wpt>
  <wpt lat="43.81949" lon="4.06913">
    <ele>36</ele>
    <name><![CDATA[Pont submersible]]></name>
  </wpt>
  <wpt lat="43.82103" lon="4.06969">
    <ele>40</ele>
    <name><![CDATA[À droite le long du Vidoule]]></name>
  </wpt>
  <wpt lat="43.81727" lon="4.07165">
    <ele>35</ele>
    <name><![CDATA[Passage sous l'ancienne voie ferrée]]></name>
  </wpt>
  <wpt lat="43.80911" lon="4.07648">
    <ele>40</ele>
    <name><![CDATA[Mas du Brut ]]></name>
  </wpt>
  <wpt lat="43.80374" lon="4.07928">
    <ele>33</ele>
    <name><![CDATA[Monter sur la future voie verte]]></name>
  </wpt>
  <wpt lat="43.79834" lon="4.0783">
    <ele>32</ele>
    <name><![CDATA[Moulin de Villevieille et de Fontibus en face]]></name>
  </wpt>
  <wpt lat="43.78673" lon="4.08567">
    <ele>29</ele>
    <name><![CDATA[Esplanade rive gauche du Vidourle]]></name>
  </wpt>
  <trk>
    <name><![CDATA[Les moulins du Vidourle et ruines de Montredon]]></name>
    <trkseg>
      <trkpt lat="43.78672" lon="4.08567">
        <ele>29</ele>
        <time>2017-02-27T15:54:37.000Z</time>
      </trkpt>
      <trkpt lat="43.7869" lon="4.08556">
        <ele>28</ele>
        <time>2017-02-27T15:56:37.000Z</time>
      </trkpt>
      <trkpt lat="43.78707" lon="4.08538">
        <ele>28</ele>
        <time>2017-02-27T15:58:37.000Z</time>
      </trkpt>
      <trkpt lat="43.78719" lon="4.08522">
        <ele>27.8</ele>
        <time>2017-02-27T15:59:10.109Z</time>
      </trkpt>
      <trkpt lat="43.78717" lon="4.08524">
        <ele>27.8</ele>
        <time>2017-02-27T15:59:15.459Z</time>
      </trkpt>
      <trkpt lat="43.78697" lon="4.08461">
        <ele>27</ele>
        <time>2017-02-27T16:00:52.254Z</time>
      </trkpt>
      <trkpt lat="43.78696" lon="4.08459">
        <ele>27</ele>
        <time>2017-02-27T16:00:55.162Z</time>
      </trkpt>
      <trkpt lat="43.78691" lon="4.08447">
        <ele>26.8</ele>
        <time>2017-02-27T16:01:14.373Z</time>
      </trkpt>
      <trkpt lat="43.78685" lon="4.0845">
        <ele>26.8</ele>
        <time>2017-02-27T16:01:26.812Z</time>
      </trkpt>
      <trkpt lat="43.78671" lon="4.084">
        <ele>26.3</ele>
        <time>2017-02-27T16:02:42.561Z</time>
      </trkpt>
      <trkpt lat="43.78669" lon="4.08391">
        <ele>26.3</ele>
        <time>2017-02-27T16:02:55.028Z</time>
      </trkpt>
      <trkpt lat="43.78662" lon="4.08386">
        <ele>26.3</ele>
        <time>2017-02-27T16:03:09.811Z</time>
      </trkpt>
      <trkpt lat="43.7866" lon="4.08381">
        <ele>26.3</ele>
        <time>2017-02-27T16:03:18.024Z</time>
      </trkpt>
      <trkpt lat="43.78665" lon="4.08378">
        <ele>26.3</ele>
        <time>2017-02-27T16:03:25.472Z</time>
      </trkpt>
      <trkpt lat="43.7866" lon="4.08381">
        <ele>26.3</ele>
        <time>2017-02-27T16:03:32.920Z</time>
      </trkpt>
      <trkpt lat="43.78662" lon="4.08386">
        <ele>26.3</ele>
        <time>2017-02-27T16:03:38.574Z</time>
      </trkpt>
      <trkpt lat="43.78669" lon="4.08391">
        <ele>26.3</ele>
        <time>2017-02-27T16:03:48.751Z</time>
      </trkpt>
      <trkpt lat="43.78671" lon="4.084">
        <ele>26.3</ele>
        <time>2017-02-27T16:03:57.334Z</time>
      </trkpt>
      <trkpt lat="43.78678" lon="4.084">
        <ele>26.3</ele>
        <time>2017-02-27T16:04:06.296Z</time>
      </trkpt>
      <trkpt lat="43.78691" lon="4.08395">
        <ele>26.5</ele>
        <time>2017-02-27T16:04:24.169Z</time>
      </trkpt>
      <trkpt lat="43.78692" lon="4.08393">
        <ele>26.5</ele>
        <time>2017-02-27T16:04:26.767Z</time>
      </trkpt>
      <trkpt lat="43.7869" lon="4.08384">
        <ele>26.5</ele>
        <time>2017-02-27T16:04:36.215Z</time>
      </trkpt>
      <trkpt lat="43.78691" lon="4.08377">
        <ele>26.8</ele>
        <time>2017-02-27T16:04:43.269Z</time>
      </trkpt>
      <trkpt lat="43.78697" lon="4.0837">
        <ele>26.8</ele>
        <time>2017-02-27T16:04:54.211Z</time>
      </trkpt>
      <trkpt lat="43.78715" lon="4.08357">
        <ele>27</ele>
        <time>2017-02-27T16:05:21.150Z</time>
      </trkpt>
      <trkpt lat="43.7877" lon="4.08314">
        <ele>26.8</ele>
        <time>2017-02-27T16:06:45.191Z</time>
      </trkpt>
      <trkpt lat="43.78775" lon="4.0831">
        <ele>26</ele>
        <time>2017-02-27T16:06:53.833Z</time>
      </trkpt>
      <trkpt lat="43.78828" lon="4.08265">
        <ele>26</ele>
        <time>2017-02-27T16:08:16.257Z</time>
      </trkpt>
      <trkpt lat="43.78841" lon="4.08242">
        <ele>26.3</ele>
        <time>2017-02-27T16:08:44.631Z</time>
      </trkpt>
      <trkpt lat="43.78851" lon="4.08233">
        <ele>26.8</ele>
        <time>2017-02-27T16:09:07.215Z</time>
      </trkpt>
      <trkpt lat="43.78841" lon="4.08242">
        <ele>26.3</ele>
        <time>2017-02-27T16:09:29.799Z</time>
      </trkpt>
      <trkpt lat="43.78835" lon="4.08247">
        <ele>26</ele>
        <time>2017-02-27T16:09:44.357Z</time>
      </trkpt>
      <trkpt lat="43.78836" lon="4.08241">
        <ele>26.3</ele>
        <time>2017-02-27T16:09:53.998Z</time>
      </trkpt>
      <trkpt lat="43.78838" lon="4.08236">
        <ele>26.5</ele>
        <time>2017-02-27T16:10:02.041Z</time>
      </trkpt>
      <trkpt lat="43.78842" lon="4.08233">
        <ele>26.8</ele>
        <time>2017-02-27T16:10:10.284Z</time>
      </trkpt>
      <trkpt lat="43.78851" lon="4.08219">
        <ele>27.3</ele>
        <time>2017-02-27T16:10:37.431Z</time>
      </trkpt>
      <trkpt lat="43.78859" lon="4.08211">
        <ele>27.8</ele>
        <time>2017-02-27T16:10:55.763Z</time>
      </trkpt>
      <trkpt lat="43.78864" lon="4.082">
        <ele>28.5</ele>
        <time>2017-02-27T16:11:15.295Z</time>
      </trkpt>
      <trkpt lat="43.78871" lon="4.08184">
        <ele>29.5</ele>
        <time>2017-02-27T16:11:47.088Z</time>
      </trkpt>
      <trkpt lat="43.78875" lon="4.08178">
        <ele>29.8</ele>
        <time>2017-02-27T16:12:00.108Z</time>
      </trkpt>
      <trkpt lat="43.78879" lon="4.08174">
        <ele>30.3</ele>
        <time>2017-02-27T16:12:11.543Z</time>
      </trkpt>
      <trkpt lat="43.78889" lon="4.08157">
        <ele>31.5</ele>
        <time>2017-02-27T16:12:48.331Z</time>
      </trkpt>
      <trkpt lat="43.7889" lon="4.08153">
        <ele>31.8</ele>
        <time>2017-02-27T16:12:55.321Z</time>
      </trkpt>
      <trkpt lat="43.78891" lon="4.08146">
        <ele>32</ele>
        <time>2017-02-27T16:13:06.655Z</time>
      </trkpt>
      <trkpt lat="43.78896" lon="4.08138">
        <ele>32.5</ele>
        <time>2017-02-27T16:13:23.626Z</time>
      </trkpt>
      <trkpt lat="43.789" lon="4.08134">
        <ele>33</ele>
        <time>2017-02-27T16:13:36.141Z</time>
      </trkpt>
      <trkpt lat="43.78913" lon="4.08126">
        <ele>33.8</ele>
        <time>2017-02-27T16:14:07.887Z</time>
      </trkpt>
      <trkpt lat="43.78929" lon="4.08119">
        <ele>34.3</ele>
        <time>2017-02-27T16:14:47.921Z</time>
      </trkpt>
      <trkpt lat="43.78938" lon="4.08112">
        <ele>34.8</ele>
        <time>2017-02-27T16:15:11.327Z</time>
      </trkpt>
      <trkpt lat="43.78941" lon="4.08106">
        <ele>35</ele>
        <time>2017-02-27T16:15:22.864Z</time>
      </trkpt>
      <trkpt lat="43.78941" lon="4.08101">
        <ele>35.3</ele>
        <time>2017-02-27T16:15:31.433Z</time>
      </trkpt>
      <trkpt lat="43.78942" lon="4.08077">
        <ele>36.5</ele>
        <time>2017-02-27T16:16:11.934Z</time>
      </trkpt>
      <trkpt lat="43.78947" lon="4.08102">
        <ele>35.3</ele>
        <time>2017-02-27T16:16:55.097Z</time>
      </trkpt>
      <trkpt lat="43.78948" lon="4.08106">
        <ele>34.8</ele>
        <time>2017-02-27T16:17:01.282Z</time>
      </trkpt>
      <trkpt lat="43.78948" lon="4.0811">
        <ele>34.8</ele>
        <time>2017-02-27T16:17:06.506Z</time>
      </trkpt>
      <trkpt lat="43.78945" lon="4.08115">
        <ele>34.5</ele>
        <time>2017-02-27T16:17:15.038Z</time>
      </trkpt>
      <trkpt lat="43.78951" lon="4.08116">
        <ele>34.5</ele>
        <time>2017-02-27T16:17:26.994Z</time>
      </trkpt>
      <trkpt lat="43.78954" lon="4.08114">
        <ele>34.8</ele>
        <time>2017-02-27T16:17:33.474Z</time>
      </trkpt>
      <trkpt lat="43.78956" lon="4.08113">
        <ele>35.5</ele>
        <time>2017-02-27T16:17:37.063Z</time>
      </trkpt>
      <trkpt lat="43.78977" lon="4.08102">
        <ele>35.5</ele>
        <time>2017-02-27T16:18:19.974Z</time>
      </trkpt>
      <trkpt lat="43.79004" lon="4.08077">
        <ele>36.5</ele>
        <time>2017-02-27T16:19:24.003Z</time>
      </trkpt>
      <trkpt lat="43.79022" lon="4.08055">
        <ele>35.8</ele>
        <time>2017-02-27T16:20:09.505Z</time>
      </trkpt>
      <trkpt lat="43.79042" lon="4.08025">
        <ele>35.8</ele>
        <time>2017-02-27T16:21:07.198Z</time>
      </trkpt>
      <trkpt lat="43.79057" lon="4.07998">
        <ele>36.3</ele>
        <time>2017-02-27T16:21:56.965Z</time>
      </trkpt>
      <trkpt lat="43.7906" lon="4.07993">
        <ele>36.5</ele>
        <time>2017-02-27T16:22:06.030Z</time>
      </trkpt>
      <trkpt lat="43.79074" lon="4.07966">
        <ele>37.5</ele>
        <time>2017-02-27T16:22:55.193Z</time>
      </trkpt>
      <trkpt lat="43.79082" lon="4.07947">
        <ele>38.8</ele>
        <time>2017-02-27T16:23:26.605Z</time>
      </trkpt>
      <trkpt lat="43.7909" lon="4.07914">
        <ele>40.3</ele>
        <time>2017-02-27T16:24:16.754Z</time>
      </trkpt>
      <trkpt lat="43.79092" lon="4.07901">
        <ele>40.8</ele>
        <time>2017-02-27T16:24:36.881Z</time>
      </trkpt>
      <trkpt lat="43.79094" lon="4.07883">
        <ele>41.5</ele>
        <time>2017-02-27T16:25:02.400Z</time>
      </trkpt>
      <trkpt lat="43.79096" lon="4.07871">
        <ele>41.8</ele>
        <time>2017-02-27T16:25:20.831Z</time>
      </trkpt>
      <trkpt lat="43.79101" lon="4.07851">
        <ele>42.5</ele>
        <time>2017-02-27T16:25:50.919Z</time>
      </trkpt>
      <trkpt lat="43.79105" lon="4.07838">
        <ele>42.8</ele>
        <time>2017-02-27T16:26:11.977Z</time>
      </trkpt>
      <trkpt lat="43.79106" lon="4.07833">
        <ele>44.3</ele>
        <time>2017-02-27T16:26:19.420Z</time>
      </trkpt>
      <trkpt lat="43.79116" lon="4.07789">
        <ele>44.3</ele>
        <time>2017-02-27T16:27:25.966Z</time>
      </trkpt>
      <trkpt lat="43.79123" lon="4.07717">
        <ele>52</ele>
        <time>2017-02-27T16:29:12.448Z</time>
      </trkpt>
      <trkpt lat="43.79124" lon="4.0771">
        <ele>52</ele>
        <time>2017-02-27T16:29:21.522Z</time>
      </trkpt>
      <trkpt lat="43.7912" lon="4.07695">
        <ele>54.3</ele>
        <time>2017-02-27T16:28:44.253Z</time>
      </trkpt>
      <trkpt lat="43.79112" lon="4.07683">
        <ele>55.8</ele>
        <time>2017-02-27T16:28:05.950Z</time>
      </trkpt>
      <trkpt lat="43.79105" lon="4.07667">
        <ele>58</ele>
        <time>2017-02-27T16:27:20.365Z</time>
      </trkpt>
      <trkpt lat="43.79089" lon="4.07634">
        <ele>62.8</ele>
        <time>2017-02-27T16:25:46.051Z</time>
      </trkpt>
      <trkpt lat="43.79088" lon="4.07631">
        <ele>62.8</ele>
        <time>2017-02-27T16:25:38.591Z</time>
      </trkpt>
      <trkpt lat="43.79078" lon="4.07597">
        <ele>67.5</ele>
        <time>2017-02-27T16:24:12.505Z</time>
      </trkpt>
      <trkpt lat="43.79077" lon="4.07582">
        <ele>69.5</ele>
        <time>2017-02-27T16:23:37.381Z</time>
      </trkpt>
      <trkpt lat="43.79075" lon="4.07574">
        <ele>69.8</ele>
        <time>2017-02-27T16:23:16.395Z</time>
      </trkpt>
      <trkpt lat="43.79064" lon="4.07528">
        <ele>72.3</ele>
        <time>2017-02-27T16:21:24.004Z</time>
      </trkpt>
      <trkpt lat="43.79056" lon="4.07503">
        <ele>74.3</ele>
        <time>2017-02-27T16:20:17.819Z</time>
      </trkpt>
      <trkpt lat="43.79052" lon="4.07494">
        <ele>74.3</ele>
        <time>2017-02-27T16:19:54.066Z</time>
      </trkpt>
      <trkpt lat="43.7905" lon="4.07494">
        <ele>74.3</ele>
        <time>2017-02-27T16:19:47.060Z</time>
      </trkpt>
      <trkpt lat="43.7906" lon="4.07468">
        <ele>72</ele>
        <time>2017-02-27T16:18:38.146Z</time>
      </trkpt>
      <trkpt lat="43.79061" lon="4.07461">
        <ele>71.5</ele>
        <time>2017-02-27T16:18:21.137Z</time>
      </trkpt>
      <trkpt lat="43.79058" lon="4.0746">
        <ele>72</ele>
        <time>2017-02-27T16:18:13.495Z</time>
      </trkpt>
      <trkpt lat="43.79066" lon="4.07459">
        <ele>71</ele>
        <time>2017-02-27T16:17:48.593Z</time>
      </trkpt>
      <trkpt lat="43.79075" lon="4.07447">
        <ele>70</ele>
        <time>2017-02-27T16:19:48.593Z</time>
      </trkpt>
      <trkpt lat="43.79086" lon="4.07454">
        <ele>70</ele>
        <time>2017-02-27T16:21:48.593Z</time>
      </trkpt>
      <trkpt lat="43.79098" lon="4.07459">
        <ele>70</ele>
        <time>2017-02-27T16:22:10.815Z</time>
      </trkpt>
      <trkpt lat="43.79153" lon="4.07445">
        <ele>69</ele>
        <time>2017-02-27T16:23:45.386Z</time>
      </trkpt>
      <trkpt lat="43.79145" lon="4.07462">
        <ele>71</ele>
        <time>2017-02-27T16:23:48.593Z</time>
      </trkpt>
      <trkpt lat="43.79126" lon="4.07472">
        <ele>72</ele>
        <time>2017-02-27T16:25:13.750Z</time>
      </trkpt>
      <trkpt lat="43.79135" lon="4.07479">
        <ele>73</ele>
        <time>2017-02-27T16:25:58.722Z</time>
      </trkpt>
      <trkpt lat="43.79152" lon="4.07475">
        <ele>73</ele>
        <time>2017-02-27T16:25:48.593Z</time>
      </trkpt>
      <trkpt lat="43.79171" lon="4.07488">
        <ele>75</ele>
        <time>2017-02-27T16:27:48.593Z</time>
      </trkpt>
      <trkpt lat="43.79195" lon="4.07492">
        <ele>74</ele>
        <time>2017-02-27T16:29:48.593Z</time>
      </trkpt>
      <trkpt lat="43.79191" lon="4.0751">
        <ele>76</ele>
        <time>2017-02-27T16:31:05.916Z</time>
      </trkpt>
      <trkpt lat="43.79207" lon="4.07527">
        <ele>74</ele>
        <time>2017-02-27T16:31:48.593Z</time>
      </trkpt>
      <trkpt lat="43.79203" lon="4.07535">
        <ele>74</ele>
        <time>2017-02-27T16:33:48.593Z</time>
      </trkpt>
      <trkpt lat="43.79197" lon="4.07556">
        <ele>75</ele>
        <time>2017-02-27T16:35:48.593Z</time>
      </trkpt>
      <trkpt lat="43.79198" lon="4.07545">
        <ele>75</ele>
        <time>2017-02-27T16:37:48.593Z</time>
      </trkpt>
      <trkpt lat="43.79197" lon="4.07566">
        <ele>75</ele>
        <time>2017-02-27T16:39:48.593Z</time>
      </trkpt>
      <trkpt lat="43.79206" lon="4.07567">
        <ele>74</ele>
        <time>2017-02-27T16:41:48.593Z</time>
      </trkpt>
      <trkpt lat="43.79197" lon="4.0757">
        <ele>75</ele>
        <time>2017-02-27T16:43:48.593Z</time>
      </trkpt>
      <trkpt lat="43.79196" lon="4.07551">
        <ele>75</ele>
        <time>2017-02-27T16:45:48.593Z</time>
      </trkpt>
      <trkpt lat="43.79201" lon="4.0754">
        <ele>75</ele>
        <time>2017-02-27T16:47:48.593Z</time>
      </trkpt>
      <trkpt lat="43.79208" lon="4.0753">
        <ele>74</ele>
        <time>2017-02-27T16:49:48.593Z</time>
      </trkpt>
      <trkpt lat="43.79216" lon="4.07525">
        <ele>73</ele>
        <time>2017-02-27T16:51:48.593Z</time>
      </trkpt>
      <trkpt lat="43.7922" lon="4.07519">
        <ele>73</ele>
        <time>2017-02-27T16:53:48.593Z</time>
      </trkpt>
      <trkpt lat="43.79226" lon="4.07519">
        <ele>73</ele>
        <time>2017-02-27T16:55:48.593Z</time>
      </trkpt>
      <trkpt lat="43.79234" lon="4.07523">
        <ele>72</ele>
        <time>2017-02-27T16:57:48.593Z</time>
      </trkpt>
      <trkpt lat="43.79242" lon="4.07534">
        <ele>71</ele>
        <time>2017-02-27T16:59:48.593Z</time>
      </trkpt>
      <trkpt lat="43.79237" lon="4.07526">
        <ele>72</ele>
        <time>2017-02-27T17:01:48.593Z</time>
      </trkpt>
      <trkpt lat="43.79228" lon="4.07521">
        <ele>73</ele>
        <time>2017-02-27T17:03:48.593Z</time>
      </trkpt>
      <trkpt lat="43.79221" lon="4.07521">
        <ele>73</ele>
        <time>2017-02-27T17:05:48.593Z</time>
      </trkpt>
      <trkpt lat="43.79207" lon="4.07525">
        <ele>74</ele>
        <time>2017-02-27T17:07:48.593Z</time>
      </trkpt>
      <trkpt lat="43.79201" lon="4.07521">
        <ele>75</ele>
        <time>2017-02-27T17:09:48.593Z</time>
      </trkpt>
      <trkpt lat="43.79191" lon="4.0751">
        <ele>76</ele>
        <time>2017-02-27T17:11:48.593Z</time>
      </trkpt>
      <trkpt lat="43.79196" lon="4.07493">
        <ele>74</ele>
        <time>2017-02-27T17:13:48.593Z</time>
      </trkpt>
      <trkpt lat="43.79171" lon="4.07488">
        <ele>75</ele>
        <time>2017-02-27T17:14:49.064Z</time>
      </trkpt>
      <trkpt lat="43.79152" lon="4.07475">
        <ele>73</ele>
        <time>2017-02-27T17:15:41.644Z</time>
      </trkpt>
      <trkpt lat="43.79136" lon="4.07479">
        <ele>73</ele>
        <time>2017-02-27T17:16:22.202Z</time>
      </trkpt>
      <trkpt lat="43.79126" lon="4.07471">
        <ele>72</ele>
        <time>2017-02-27T17:15:48.593Z</time>
      </trkpt>
      <trkpt lat="43.79145" lon="4.07462">
        <ele>71</ele>
        <time>2017-02-27T17:18:38.161Z</time>
      </trkpt>
      <trkpt lat="43.79153" lon="4.07445">
        <ele>68</ele>
        <time>2017-02-27T17:17:48.593Z</time>
      </trkpt>
      <trkpt lat="43.79117" lon="4.07457">
        <ele>70</ele>
        <time>2017-02-27T17:19:48.593Z</time>
      </trkpt>
      <trkpt lat="43.79098" lon="4.0746">
        <ele>70</ele>
        <time>2017-02-27T17:21:48.593Z</time>
      </trkpt>
      <trkpt lat="43.79075" lon="4.07447">
        <ele>70</ele>
        <time>2017-02-27T17:23:48.593Z</time>
      </trkpt>
      <trkpt lat="43.79051" lon="4.07451">
        <ele>72</ele>
        <time>2017-02-27T17:25:48.593Z</time>
      </trkpt>
      <trkpt lat="43.7903" lon="4.07451">
        <ele>73</ele>
        <time>2017-02-27T17:27:48.593Z</time>
      </trkpt>
      <trkpt lat="43.79" lon="4.07456">
        <ele>75</ele>
        <time>2017-02-27T17:31:48.593Z</time>
      </trkpt>
      <trkpt lat="43.78974" lon="4.07463">
        <ele>78</ele>
        <time>2017-02-27T17:33:48.593Z</time>
      </trkpt>
      <trkpt lat="43.78942" lon="4.07478">
        <ele>82</ele>
        <time>2017-02-27T17:35:48.593Z</time>
      </trkpt>
      <trkpt lat="43.78859" lon="4.07472">
        <ele>88</ele>
        <time>2017-02-27T17:37:48.593Z</time>
      </trkpt>
      <trkpt lat="43.78826" lon="4.07462">
        <ele>89</ele>
        <time>2017-02-27T17:39:48.593Z</time>
      </trkpt>
      <trkpt lat="43.78779" lon="4.07454">
        <ele>88</ele>
        <time>2017-02-27T17:41:48.593Z</time>
      </trkpt>
      <trkpt lat="43.78743" lon="4.07417">
        <ele>93</ele>
        <time>2017-02-27T17:43:48.593Z</time>
      </trkpt>
      <trkpt lat="43.78675" lon="4.07378">
        <ele>92</ele>
        <time>2017-02-27T17:43:37.632Z</time>
      </trkpt>
      <trkpt lat="43.78674" lon="4.07378">
        <ele>92</ele>
        <time>2017-02-27T17:43:37.500Z</time>
      </trkpt>
      <trkpt lat="43.78658" lon="4.07363">
        <ele>91.8</ele>
        <time>2017-02-27T17:43:34.508Z</time>
      </trkpt>
      <trkpt lat="43.78647" lon="4.07348">
        <ele>91.8</ele>
        <time>2017-02-27T17:43:32.235Z</time>
      </trkpt>
      <trkpt lat="43.7863" lon="4.0732">
        <ele>90.5</ele>
        <time>2017-02-27T17:43:28.310Z</time>
      </trkpt>
      <trkpt lat="43.78601" lon="4.07283">
        <ele>87.5</ele>
        <time>2017-02-27T17:43:22.468Z</time>
      </trkpt>
      <trkpt lat="43.78598" lon="4.07277">
        <ele>87.3</ele>
        <time>2017-02-27T17:43:21.688Z</time>
      </trkpt>
      <trkpt lat="43.78593" lon="4.0725">
        <ele>87</ele>
        <time>2017-02-27T17:43:18.588Z</time>
      </trkpt>
      <trkpt lat="43.78591" lon="4.07247">
        <ele>86.8</ele>
        <time>2017-02-27T17:43:18.209Z</time>
      </trkpt>
      <trkpt lat="43.78586" lon="4.07239">
        <ele>86.3</ele>
        <time>2017-02-27T17:43:17.116Z</time>
      </trkpt>
      <trkpt lat="43.78569" lon="4.07234">
        <ele>84.5</ele>
        <time>2017-02-27T17:43:14.467Z</time>
      </trkpt>
      <trkpt lat="43.78564" lon="4.07231">
        <ele>84</ele>
        <time>2017-02-27T17:43:13.657Z</time>
      </trkpt>
      <trkpt lat="43.78559" lon="4.07227">
        <ele>83.5</ele>
        <time>2017-02-27T17:43:12.807Z</time>
      </trkpt>
      <trkpt lat="43.78542" lon="4.07202">
        <ele>82.5</ele>
        <time>2017-02-27T17:43:09.083Z</time>
      </trkpt>
      <trkpt lat="43.78535" lon="4.07197">
        <ele>82.3</ele>
        <time>2017-02-27T17:43:07.881Z</time>
      </trkpt>
      <trkpt lat="43.78531" lon="4.07192">
        <ele>82.3</ele>
        <time>2017-02-27T17:43:07.078Z</time>
      </trkpt>
      <trkpt lat="43.78525" lon="4.07182">
        <ele>82.5</ele>
        <time>2017-02-27T17:43:05.622Z</time>
      </trkpt>
      <trkpt lat="43.78524" lon="4.07164">
        <ele>82.8</ele>
        <time>2017-02-27T17:43:03.738Z</time>
      </trkpt>
      <trkpt lat="43.78526" lon="4.0713">
        <ele>80.8</ele>
        <time>2017-02-27T17:43:00.075Z</time>
      </trkpt>
      <trkpt lat="43.78528" lon="4.07119">
        <ele>79.8</ele>
        <time>2017-02-27T17:42:58.841Z</time>
      </trkpt>
      <trkpt lat="43.7853" lon="4.071">
        <ele>78.3</ele>
        <time>2017-02-27T17:42:56.685Z</time>
      </trkpt>
      <trkpt lat="43.7853" lon="4.07082">
        <ele>77.3</ele>
        <time>2017-02-27T17:42:54.824Z</time>
      </trkpt>
      <trkpt lat="43.78529" lon="4.0708">
        <ele>77</ele>
        <time>2017-02-27T17:42:54.583Z</time>
      </trkpt>
      <trkpt lat="43.78524" lon="4.07067">
        <ele>75.8</ele>
        <time>2017-02-27T17:42:53.005Z</time>
      </trkpt>
      <trkpt lat="43.78522" lon="4.07061">
        <ele>75.8</ele>
        <time>2017-02-27T17:42:52.255Z</time>
      </trkpt>
      <trkpt lat="43.7852" lon="4.07054">
        <ele>75.5</ele>
        <time>2017-02-27T17:42:51.489Z</time>
      </trkpt>
      <trkpt lat="43.78514" lon="4.07028">
        <ele>73.3</ele>
        <time>2017-02-27T17:42:48.481Z</time>
      </trkpt>
      <trkpt lat="43.78512" lon="4.07018">
        <ele>72</ele>
        <time>2017-02-27T17:41:43.581Z</time>
      </trkpt>
      <trkpt lat="43.78511" lon="4.07014">
        <ele>71.8</ele>
        <time>2017-02-27T17:41:14.503Z</time>
      </trkpt>
      <trkpt lat="43.7853" lon="4.06956">
        <ele>61.5</ele>
        <time>2017-02-27T17:34:36.140Z</time>
      </trkpt>
      <trkpt lat="43.78547" lon="4.06902">
        <ele>61.5</ele>
        <time>2017-02-27T17:28:20.516Z</time>
      </trkpt>
      <trkpt lat="43.78562" lon="4.06857">
        <ele>58.5</ele>
        <time>2017-02-27T17:23:01.401Z</time>
      </trkpt>
      <trkpt lat="43.78563" lon="4.06854">
        <ele>54</ele>
        <time>2017-02-27T17:22:43.171Z</time>
      </trkpt>
      <trkpt lat="43.78562" lon="4.06857">
        <ele>58.5</ele>
        <time>2017-02-27T17:22:24.941Z</time>
      </trkpt>
      <trkpt lat="43.78659" lon="4.06907">
        <ele>60.8</ele>
        <time>2017-02-27T17:19:18.043Z</time>
      </trkpt>
      <trkpt lat="43.78716" lon="4.06937">
        <ele>60.8</ele>
        <time>2017-02-27T17:17:26.739Z</time>
      </trkpt>
      <trkpt lat="43.78726" lon="4.06944">
        <ele>60.8</ele>
        <time>2017-02-27T17:17:05.961Z</time>
      </trkpt>
      <trkpt lat="43.78789" lon="4.07023">
        <ele>60.5</ele>
        <time>2017-02-27T17:14:30.532Z</time>
      </trkpt>
      <trkpt lat="43.78806" lon="4.07039">
        <ele>60</ele>
        <time>2017-02-27T17:13:54.876Z</time>
      </trkpt>
      <trkpt lat="43.78812" lon="4.07042">
        <ele>59.5</ele>
        <time>2017-02-27T17:13:41.763Z</time>
      </trkpt>
      <trkpt lat="43.78816" lon="4.07043">
        <ele>59.5</ele>
        <time>2017-02-27T17:13:35.660Z</time>
      </trkpt>
      <trkpt lat="43.78855" lon="4.07044">
        <ele>57.3</ele>
        <time>2017-02-27T17:13:42.193Z</time>
      </trkpt>
      <trkpt lat="43.78868" lon="4.07045">
        <ele>56.8</ele>
        <time>2017-02-27T17:13:44.502Z</time>
      </trkpt>
      <trkpt lat="43.78886" lon="4.07053">
        <ele>55.8</ele>
        <time>2017-02-27T17:13:47.628Z</time>
      </trkpt>
      <trkpt lat="43.78974" lon="4.07112">
        <ele>51.5</ele>
        <time>2017-02-27T17:14:03.959Z</time>
      </trkpt>
      <trkpt lat="43.79073" lon="4.07161">
        <ele>46.5</ele>
        <time>2017-02-27T17:14:21.630Z</time>
      </trkpt>
      <trkpt lat="43.79097" lon="4.07175">
        <ele>45.8</ele>
        <time>2017-02-27T17:14:26.144Z</time>
      </trkpt>
      <trkpt lat="43.79153" lon="4.07206">
        <ele>43.8</ele>
        <time>2017-02-27T17:14:36.195Z</time>
      </trkpt>
      <trkpt lat="43.79174" lon="4.07218">
        <ele>43.8</ele>
        <time>2017-02-27T17:14:39.935Z</time>
      </trkpt>
      <trkpt lat="43.79187" lon="4.0722">
        <ele>43.3</ele>
        <time>2017-02-27T17:14:42.157Z</time>
      </trkpt>
      <trkpt lat="43.79199" lon="4.07219">
        <ele>43</ele>
        <time>2017-02-27T17:14:44.261Z</time>
      </trkpt>
      <trkpt lat="43.79211" lon="4.07219">
        <ele>42.5</ele>
        <time>2017-02-27T17:14:46.175Z</time>
      </trkpt>
      <trkpt lat="43.79233" lon="4.07226">
        <ele>41.5</ele>
        <time>2017-02-27T17:14:50.031Z</time>
      </trkpt>
      <trkpt lat="43.79292" lon="4.07254">
        <ele>39</ele>
        <time>2017-02-27T17:15:00.489Z</time>
      </trkpt>
      <trkpt lat="43.79288" lon="4.07246">
        <ele>39.3</ele>
        <time>2017-02-27T17:15:01.660Z</time>
      </trkpt>
      <trkpt lat="43.79288" lon="4.07246">
        <ele>39.3</ele>
        <time>2017-02-27T17:15:01.680Z</time>
      </trkpt>
      <trkpt lat="43.79285" lon="4.0723">
        <ele>40</ele>
        <time>2017-02-27T17:14:27.593Z</time>
      </trkpt>
      <trkpt lat="43.79286" lon="4.07211">
        <ele>41</ele>
        <time>2017-02-27T17:13:46.846Z</time>
      </trkpt>
      <trkpt lat="43.7929" lon="4.072">
        <ele>41.5</ele>
        <time>2017-02-27T17:13:21.632Z</time>
      </trkpt>
      <trkpt lat="43.79306" lon="4.07176">
        <ele>42.8</ele>
        <time>2017-02-27T17:12:13.529Z</time>
      </trkpt>
      <trkpt lat="43.7931" lon="4.07157">
        <ele>44</ele>
        <time>2017-02-27T17:09:35.770Z</time>
      </trkpt>
      <trkpt lat="43.79315" lon="4.07138">
        <ele>45.3</ele>
        <time>2017-02-27T17:07:05.891Z</time>
      </trkpt>
      <trkpt lat="43.79318" lon="4.07121">
        <ele>48.5</ele>
        <time>2017-02-27T17:04:54.050Z</time>
      </trkpt>
      <trkpt lat="43.79321" lon="4.071">
        <ele>48.5</ele>
        <time>2017-02-27T17:02:08.211Z</time>
      </trkpt>
      <trkpt lat="43.79321" lon="4.0707">
        <ele>49.8</ele>
        <time>2017-02-27T16:58:18.585Z</time>
      </trkpt>
      <trkpt lat="43.79323" lon="4.07065">
        <ele>49.5</ele>
        <time>2017-02-27T16:57:41.739Z</time>
      </trkpt>
      <trkpt lat="43.79326" lon="4.07031">
        <ele>49</ele>
        <time>2017-02-27T16:53:20.604Z</time>
      </trkpt>
      <trkpt lat="43.79314" lon="4.06987">
        <ele>49</ele>
        <time>2017-02-27T16:55:20.604Z</time>
      </trkpt>
      <trkpt lat="43.79306" lon="4.06943">
        <ele>47</ele>
        <time>2017-02-27T16:57:20.604Z</time>
      </trkpt>
      <trkpt lat="43.79303" lon="4.06896">
        <ele>45</ele>
        <time>2017-02-27T16:59:20.604Z</time>
      </trkpt>
      <trkpt lat="43.7931" lon="4.06799">
        <ele>39</ele>
        <time>2017-02-27T17:01:20.604Z</time>
      </trkpt>
      <trkpt lat="43.79308" lon="4.06754">
        <ele>36</ele>
        <time>2017-02-27T17:03:20.604Z</time>
      </trkpt>
      <trkpt lat="43.79305" lon="4.06712">
        <ele>35</ele>
        <time>2017-02-27T17:05:20.604Z</time>
      </trkpt>
      <trkpt lat="43.79299" lon="4.06667">
        <ele>33.5</ele>
        <time>2017-02-27T17:06:12.482Z</time>
      </trkpt>
      <trkpt lat="43.793" lon="4.06667">
        <ele>33.5</ele>
        <time>2017-02-27T17:06:13.002Z</time>
      </trkpt>
      <trkpt lat="43.793" lon="4.06684">
        <ele>34.3</ele>
        <time>2017-02-27T17:06:32.525Z</time>
      </trkpt>
      <trkpt lat="43.79303" lon="4.06683">
        <ele>34</ele>
        <time>2017-02-27T17:06:37.288Z</time>
      </trkpt>
      <trkpt lat="43.79303" lon="4.0668">
        <ele>33.8</ele>
        <time>2017-02-27T17:06:41.011Z</time>
      </trkpt>
      <trkpt lat="43.79305" lon="4.06673">
        <ele>33.5</ele>
        <time>2017-02-27T17:06:49.790Z</time>
      </trkpt>
      <trkpt lat="43.79308" lon="4.06672">
        <ele>33.3</ele>
        <time>2017-02-27T17:06:54.682Z</time>
      </trkpt>
      <trkpt lat="43.79311" lon="4.06672">
        <ele>33</ele>
        <time>2017-02-27T17:06:59.058Z</time>
      </trkpt>
      <trkpt lat="43.79316" lon="4.06675">
        <ele>33</ele>
        <time>2017-02-27T17:07:06.822Z</time>
      </trkpt>
      <trkpt lat="43.79326" lon="4.06683">
        <ele>32.8</ele>
        <time>2017-02-27T17:07:25.825Z</time>
      </trkpt>
      <trkpt lat="43.79332" lon="4.06687">
        <ele>32.5</ele>
        <time>2017-02-27T17:07:36.576Z</time>
      </trkpt>
      <trkpt lat="43.79333" lon="4.06688">
        <ele>32.5</ele>
        <time>2017-02-27T17:07:37.478Z</time>
      </trkpt>
      <trkpt lat="43.79333" lon="4.06691">
        <ele>32.5</ele>
        <time>2017-02-27T17:07:41.429Z</time>
      </trkpt>
      <trkpt lat="43.79336" lon="4.06697">
        <ele>32.5</ele>
        <time>2017-02-27T17:07:49.533Z</time>
      </trkpt>
      <trkpt lat="43.79342" lon="4.06698">
        <ele>32.5</ele>
        <time>2017-02-27T17:07:58.357Z</time>
      </trkpt>
      <trkpt lat="43.7936" lon="4.06703">
        <ele>32.3</ele>
        <time>2017-02-27T17:08:26.632Z</time>
      </trkpt>
      <trkpt lat="43.79368" lon="4.06711">
        <ele>32</ele>
        <time>2017-02-27T17:08:42.588Z</time>
      </trkpt>
      <trkpt lat="43.79382" lon="4.06731">
        <ele>32</ele>
        <time>2017-02-27T17:09:14.295Z</time>
      </trkpt>
      <trkpt lat="43.79416" lon="4.06774">
        <ele>31.8</ele>
        <time>2017-02-27T17:10:25.711Z</time>
      </trkpt>
      <trkpt lat="43.79453" lon="4.0681">
        <ele>33.5</ele>
        <time>2017-02-27T17:11:36.761Z</time>
      </trkpt>
      <trkpt lat="43.79466" lon="4.06822">
        <ele>33.8</ele>
        <time>2017-02-27T17:12:01.354Z</time>
      </trkpt>
      <trkpt lat="43.79491" lon="4.06843">
        <ele>33.8</ele>
        <time>2017-02-27T17:12:47.049Z</time>
      </trkpt>
      <trkpt lat="43.79506" lon="4.06851">
        <ele>33.5</ele>
        <time>2017-02-27T17:13:11.790Z</time>
      </trkpt>
      <trkpt lat="43.79559" lon="4.06868">
        <ele>34.5</ele>
        <time>2017-02-27T17:14:36.972Z</time>
      </trkpt>
      <trkpt lat="43.79576" lon="4.06872">
        <ele>34.8</ele>
        <time>2017-02-27T17:15:03.255Z</time>
      </trkpt>
      <trkpt lat="43.79613" lon="4.06894">
        <ele>34.8</ele>
        <time>2017-02-27T17:16:06.686Z</time>
      </trkpt>
      <trkpt lat="43.79689" lon="4.06925">
        <ele>35</ele>
        <time>2017-02-27T17:18:10.907Z</time>
      </trkpt>
      <trkpt lat="43.7971" lon="4.06929">
        <ele>35.3</ele>
        <time>2017-02-27T17:18:43.279Z</time>
      </trkpt>
      <trkpt lat="43.79734" lon="4.0694">
        <ele>35.5</ele>
        <time>2017-02-27T17:19:22.564Z</time>
      </trkpt>
      <trkpt lat="43.79758" lon="4.06961">
        <ele>35.8</ele>
        <time>2017-02-27T17:20:07.757Z</time>
      </trkpt>
      <trkpt lat="43.79786" lon="4.06994">
        <ele>36.8</ele>
        <time>2017-02-27T17:21:05.093Z</time>
      </trkpt>
      <trkpt lat="43.79808" lon="4.07015">
        <ele>37</ele>
        <time>2017-02-27T17:21:46.270Z</time>
      </trkpt>
      <trkpt lat="43.79821" lon="4.07023">
        <ele>37</ele>
        <time>2017-02-27T17:22:09.446Z</time>
      </trkpt>
      <trkpt lat="43.79827" lon="4.07027">
        <ele>37</ele>
        <time>2017-02-27T17:22:18.527Z</time>
      </trkpt>
      <trkpt lat="43.79845" lon="4.07032">
        <ele>36.8</ele>
        <time>2017-02-27T17:22:50.447Z</time>
      </trkpt>
      <trkpt lat="43.79858" lon="4.07036">
        <ele>36.8</ele>
        <time>2017-02-27T17:23:12.245Z</time>
      </trkpt>
      <trkpt lat="43.79897" lon="4.07035">
        <ele>37</ele>
        <time>2017-02-27T17:24:19.174Z</time>
      </trkpt>
      <trkpt lat="43.79922" lon="4.07043">
        <ele>37</ele>
        <time>2017-02-27T17:25:04.041Z</time>
      </trkpt>
      <trkpt lat="43.79939" lon="4.07045">
        <ele>37.3</ele>
        <time>2017-02-27T17:25:32.671Z</time>
      </trkpt>
      <trkpt lat="43.79975" lon="4.07045">
        <ele>37.8</ele>
        <time>2017-02-27T17:26:34.138Z</time>
      </trkpt>
      <trkpt lat="43.79981" lon="4.07053">
        <ele>37.5</ele>
        <time>2017-02-27T17:26:48.029Z</time>
      </trkpt>
      <trkpt lat="43.7999" lon="4.07046">
        <ele>38</ele>
        <time>2017-02-27T17:27:05.206Z</time>
      </trkpt>
      <trkpt lat="43.80019" lon="4.07039">
        <ele>38.5</ele>
        <time>2017-02-27T17:27:55.620Z</time>
      </trkpt>
      <trkpt lat="43.80089" lon="4.07018">
        <ele>40.3</ele>
        <time>2017-02-27T17:29:57.351Z</time>
      </trkpt>
      <trkpt lat="43.80105" lon="4.06998">
        <ele>41.8</ele>
        <time>2017-02-27T17:30:34.362Z</time>
      </trkpt>
      <trkpt lat="43.80132" lon="4.06979">
        <ele>41.8</ele>
        <time>2017-02-27T17:31:25.081Z</time>
      </trkpt>
      <trkpt lat="43.80158" lon="4.06962">
        <ele>41.5</ele>
        <time>2017-02-27T17:32:14.947Z</time>
      </trkpt>
      <trkpt lat="43.80161" lon="4.06961">
        <ele>41.5</ele>
        <time>2017-02-27T17:32:19.425Z</time>
      </trkpt>
      <trkpt lat="43.80195" lon="4.06964">
        <ele>40.3</ele>
        <time>2017-02-27T17:33:18.631Z</time>
      </trkpt>
      <trkpt lat="43.80217" lon="4.06963">
        <ele>39.3</ele>
        <time>2017-02-27T17:33:56.376Z</time>
      </trkpt>
      <trkpt lat="43.8024" lon="4.06958">
        <ele>38.3</ele>
        <time>2017-02-27T17:34:35.721Z</time>
      </trkpt>
      <trkpt lat="43.80321" lon="4.06946">
        <ele>37.3</ele>
        <time>2017-02-27T17:36:54.126Z</time>
      </trkpt>
      <trkpt lat="43.80357" lon="4.06946">
        <ele>36.5</ele>
        <time>2017-02-27T17:37:56.619Z</time>
      </trkpt>
      <trkpt lat="43.80368" lon="4.06949">
        <ele>36.3</ele>
        <time>2017-02-27T17:38:15.976Z</time>
      </trkpt>
      <trkpt lat="43.80384" lon="4.06966">
        <ele>36.5</ele>
        <time>2017-02-27T17:38:49.154Z</time>
      </trkpt>
      <trkpt lat="43.80392" lon="4.06966">
        <ele>36.3</ele>
        <time>2017-02-27T17:39:02.997Z</time>
      </trkpt>
      <trkpt lat="43.804" lon="4.06965">
        <ele>36.3</ele>
        <time>2017-02-27T17:39:16.881Z</time>
      </trkpt>
      <trkpt lat="43.80419" lon="4.06963">
        <ele>35.8</ele>
        <time>2017-02-27T17:39:49.285Z</time>
      </trkpt>
      <trkpt lat="43.8048" lon="4.06949">
        <ele>34.3</ele>
        <time>2017-02-27T17:41:35.735Z</time>
      </trkpt>
      <trkpt lat="43.8049" lon="4.06948">
        <ele>37</ele>
        <time>2017-02-27T17:41:52.318Z</time>
      </trkpt>
      <trkpt lat="43.80597" lon="4.06942">
        <ele>37</ele>
        <time>2017-02-27T17:44:56.209Z</time>
      </trkpt>
      <trkpt lat="43.80675" lon="4.06935">
        <ele>38.5</ele>
        <time>2017-02-27T17:47:09.112Z</time>
      </trkpt>
      <trkpt lat="43.80725" lon="4.06932">
        <ele>38.5</ele>
        <time>2017-02-27T17:48:33.531Z</time>
      </trkpt>
      <trkpt lat="43.80756" lon="4.06931">
        <ele>39</ele>
        <time>2017-02-27T17:49:27.173Z</time>
      </trkpt>
      <trkpt lat="43.8078" lon="4.06928">
        <ele>40.5</ele>
        <time>2017-02-27T17:50:08.615Z</time>
      </trkpt>
      <trkpt lat="43.80826" lon="4.06915">
        <ele>44.3</ele>
        <time>2017-02-27T17:51:28.386Z</time>
      </trkpt>
      <trkpt lat="43.80836" lon="4.06914">
        <ele>44.8</ele>
        <time>2017-02-27T17:49:39.921Z</time>
      </trkpt>
      <trkpt lat="43.80843" lon="4.06929">
        <ele>44</ele>
        <time>2017-02-27T17:47:32.891Z</time>
      </trkpt>
      <trkpt lat="43.80846" lon="4.06943">
        <ele>43</ele>
        <time>2017-02-27T17:45:38.144Z</time>
      </trkpt>
      <trkpt lat="43.80851" lon="4.06944">
        <ele>43</ele>
        <time>2017-02-27T17:44:42.002Z</time>
      </trkpt>
      <trkpt lat="43.80856" lon="4.06941">
        <ele>43</ele>
        <time>2017-02-27T17:43:39.949Z</time>
      </trkpt>
      <trkpt lat="43.80861" lon="4.06949">
        <ele>42.3</ele>
        <time>2017-02-27T17:42:21.742Z</time>
      </trkpt>
      <trkpt lat="43.80866" lon="4.06955">
        <ele>41.8</ele>
        <time>2017-02-27T17:41:13.872Z</time>
      </trkpt>
      <trkpt lat="43.80866" lon="4.06956">
        <ele>41.5</ele>
        <time>2017-02-27T17:41:00.802Z</time>
      </trkpt>
      <trkpt lat="43.80865" lon="4.06959">
        <ele>41.5</ele>
        <time>2017-02-27T17:40:44.076Z</time>
      </trkpt>
      <trkpt lat="43.80867" lon="4.06961">
        <ele>41.3</ele>
        <time>2017-02-27T17:40:17.280Z</time>
      </trkpt>
      <trkpt lat="43.80872" lon="4.06962">
        <ele>41</ele>
        <time>2017-02-27T17:39:30.271Z</time>
      </trkpt>
      <trkpt lat="43.80882" lon="4.0696">
        <ele>40.8</ele>
        <time>2017-02-27T17:37:38.077Z</time>
      </trkpt>
      <trkpt lat="43.80891" lon="4.06958">
        <ele>40.8</ele>
        <time>2017-02-27T17:36:07.059Z</time>
      </trkpt>
      <trkpt lat="43.80901" lon="4.06955">
        <ele>40.8</ele>
        <time>2017-02-27T17:34:20.717Z</time>
      </trkpt>
      <trkpt lat="43.80904" lon="4.06956">
        <ele>40.5</ele>
        <time>2017-02-27T17:33:40.734Z</time>
      </trkpt>
      <trkpt lat="43.80904" lon="4.06962">
        <ele>39.8</ele>
        <time>2017-02-27T17:32:49.897Z</time>
      </trkpt>
      <trkpt lat="43.80902" lon="4.06965">
        <ele>39.5</ele>
        <time>2017-02-27T17:32:12.734Z</time>
      </trkpt>
      <trkpt lat="43.80897" lon="4.06967">
        <ele>39.5</ele>
        <time>2017-02-27T17:31:26.936Z</time>
      </trkpt>
      <trkpt lat="43.80902" lon="4.06965">
        <ele>39.5</ele>
        <time>2017-02-27T17:30:41.138Z</time>
      </trkpt>
      <trkpt lat="43.80904" lon="4.06962">
        <ele>39.8</ele>
        <time>2017-02-27T17:30:12.443Z</time>
      </trkpt>
      <trkpt lat="43.80904" lon="4.06956">
        <ele>40.5</ele>
        <time>2017-02-27T17:29:33.189Z</time>
      </trkpt>
      <trkpt lat="43.80901" lon="4.06955">
        <ele>40.8</ele>
        <time>2017-02-27T17:29:02.316Z</time>
      </trkpt>
      <trkpt lat="43.80891" lon="4.06958">
        <ele>40.8</ele>
        <time>2017-02-27T17:27:40.204Z</time>
      </trkpt>
      <trkpt lat="43.80882" lon="4.0696">
        <ele>40.8</ele>
        <time>2017-02-27T17:26:29.924Z</time>
      </trkpt>
      <trkpt lat="43.80872" lon="4.06962">
        <ele>41</ele>
        <time>2017-02-27T17:25:03.293Z</time>
      </trkpt>
      <trkpt lat="43.80867" lon="4.06961">
        <ele>41.3</ele>
        <time>2017-02-27T17:24:26.995Z</time>
      </trkpt>
      <trkpt lat="43.80865" lon="4.06959">
        <ele>41.5</ele>
        <time>2017-02-27T17:24:06.304Z</time>
      </trkpt>
      <trkpt lat="43.80866" lon="4.06955">
        <ele>41.8</ele>
        <time>2017-02-27T17:23:43.325Z</time>
      </trkpt>
      <trkpt lat="43.80868" lon="4.06952">
        <ele>42</ele>
        <time>2017-02-27T17:23:18.266Z</time>
      </trkpt>
      <trkpt lat="43.80878" lon="4.06945">
        <ele>42.3</ele>
        <time>2017-02-27T17:21:49.806Z</time>
      </trkpt>
      <trkpt lat="43.80921" lon="4.06912">
        <ele>44.8</ele>
        <time>2017-02-27T17:15:12.027Z</time>
      </trkpt>
      <trkpt lat="43.80923" lon="4.06908">
        <ele>44.5</ele>
        <time>2017-02-27T17:14:37.740Z</time>
      </trkpt>
      <trkpt lat="43.80923" lon="4.06906">
        <ele>44.5</ele>
        <time>2017-02-27T17:14:25.891Z</time>
      </trkpt>
      <trkpt lat="43.80922" lon="4.06903">
        <ele>44.5</ele>
        <time>2017-02-27T17:14:19.516Z</time>
      </trkpt>
      <trkpt lat="43.80922" lon="4.06902">
        <ele>44.5</ele>
        <time>2017-02-27T17:14:17.667Z</time>
      </trkpt>
      <trkpt lat="43.80937" lon="4.06893">
        <ele>44</ele>
        <time>2017-02-27T17:13:31.887Z</time>
      </trkpt>
      <trkpt lat="43.80949" lon="4.06884">
        <ele>43.8</ele>
        <time>2017-02-27T17:12:56.969Z</time>
      </trkpt>
      <trkpt lat="43.80957" lon="4.06877">
        <ele>43.5</ele>
        <time>2017-02-27T17:12:29.374Z</time>
      </trkpt>
      <trkpt lat="43.80968" lon="4.06869">
        <ele>43.5</ele>
        <time>2017-02-27T17:11:56.787Z</time>
      </trkpt>
      <trkpt lat="43.80981" lon="4.06859">
        <ele>43.8</ele>
        <time>2017-02-27T17:11:15.303Z</time>
      </trkpt>
      <trkpt lat="43.80996" lon="4.06845">
        <ele>44.3</ele>
        <time>2017-02-27T17:10:27.913Z</time>
      </trkpt>
      <trkpt lat="43.81013" lon="4.06836">
        <ele>44.5</ele>
        <time>2017-02-27T17:09:38.063Z</time>
      </trkpt>
      <trkpt lat="43.81028" lon="4.06828">
        <ele>44.3</ele>
        <time>2017-02-27T17:08:52.964Z</time>
      </trkpt>
      <trkpt lat="43.81047" lon="4.06817">
        <ele>43.8</ele>
        <time>2017-02-27T17:07:58.217Z</time>
      </trkpt>
      <trkpt lat="43.81054" lon="4.0681">
        <ele>43.8</ele>
        <time>2017-02-27T17:07:33.851Z</time>
      </trkpt>
      <trkpt lat="43.81055" lon="4.06809">
        <ele>43.8</ele>
        <time>2017-02-27T17:07:29.322Z</time>
      </trkpt>
      <trkpt lat="43.81068" lon="4.06808">
        <ele>43.8</ele>
        <time>2017-02-27T17:06:53.948Z</time>
      </trkpt>
      <trkpt lat="43.81075" lon="4.06807">
        <ele>43.8</ele>
        <time>2017-02-27T17:06:36.923Z</time>
      </trkpt>
      <trkpt lat="43.81078" lon="4.06807">
        <ele>43.8</ele>
        <time>2017-02-27T17:06:26.542Z</time>
      </trkpt>
      <trkpt lat="43.81109" lon="4.06787">
        <ele>43.5</ele>
        <time>2017-02-27T17:04:55.516Z</time>
      </trkpt>
      <trkpt lat="43.81116" lon="4.06784">
        <ele>43.8</ele>
        <time>2017-02-27T17:04:33.865Z</time>
      </trkpt>
      <trkpt lat="43.81133" lon="4.06776">
        <ele>43.8</ele>
        <time>2017-02-27T17:03:46.711Z</time>
      </trkpt>
      <trkpt lat="43.81156" lon="4.06762">
        <ele>44.5</ele>
        <time>2017-02-27T17:02:37.453Z</time>
      </trkpt>
      <trkpt lat="43.81172" lon="4.06752">
        <ele>45.5</ele>
        <time>2017-02-27T17:02:20.407Z</time>
      </trkpt>
      <trkpt lat="43.81173" lon="4.06752">
        <ele>45.8</ele>
        <time>2017-02-27T17:02:19.670Z</time>
      </trkpt>
      <trkpt lat="43.81182" lon="4.06734">
        <ele>46</ele>
        <time>2017-02-27T17:02:04.351Z</time>
      </trkpt>
      <trkpt lat="43.8119" lon="4.06725">
        <ele>46.3</ele>
        <time>2017-02-27T17:01:54.235Z</time>
      </trkpt>
      <trkpt lat="43.81208" lon="4.0671">
        <ele>46.5</ele>
        <time>2017-02-27T17:01:33.250Z</time>
      </trkpt>
      <trkpt lat="43.8122" lon="4.06697">
        <ele>47</ele>
        <time>2017-02-27T17:01:18.541Z</time>
      </trkpt>
      <trkpt lat="43.81221" lon="4.06695">
        <ele>48.3</ele>
        <time>2017-02-27T17:01:17.088Z</time>
      </trkpt>
      <trkpt lat="43.81256" lon="4.06653">
        <ele>48.3</ele>
        <time>2017-02-27T17:00:31.696Z</time>
      </trkpt>
      <trkpt lat="43.81287" lon="4.06618">
        <ele>49.8</ele>
        <time>2017-02-27T16:59:53.275Z</time>
      </trkpt>
      <trkpt lat="43.81321" lon="4.06577">
        <ele>51.3</ele>
        <time>2017-02-27T16:59:09.355Z</time>
      </trkpt>
      <trkpt lat="43.81377" lon="4.06514">
        <ele>53.8</ele>
        <time>2017-02-27T16:55:53.491Z</time>
      </trkpt>
      <trkpt lat="43.81378" lon="4.06512">
        <ele>54</ele>
        <time>2017-02-27T16:55:47.986Z</time>
      </trkpt>
      <trkpt lat="43.81383" lon="4.06519">
        <ele>54.3</ele>
        <time>2017-02-27T16:55:30.138Z</time>
      </trkpt>
      <trkpt lat="43.81397" lon="4.06552">
        <ele>55</ele>
        <time>2017-02-27T16:54:14.428Z</time>
      </trkpt>
      <trkpt lat="43.814" lon="4.06559">
        <ele>55.3</ele>
        <time>2017-02-27T16:53:57.501Z</time>
      </trkpt>
      <trkpt lat="43.81403" lon="4.06567">
        <ele>55.3</ele>
        <time>2017-02-27T16:53:41.046Z</time>
      </trkpt>
      <trkpt lat="43.81407" lon="4.06581">
        <ele>55.5</ele>
        <time>2017-02-27T16:53:10.332Z</time>
      </trkpt>
      <trkpt lat="43.81421" lon="4.06634">
        <ele>56</ele>
        <time>2017-02-27T16:51:19.787Z</time>
      </trkpt>
      <trkpt lat="43.81425" lon="4.06659">
        <ele>56</ele>
        <time>2017-02-27T16:50:28.511Z</time>
      </trkpt>
      <trkpt lat="43.81434" lon="4.06678">
        <ele>54.5</ele>
        <time>2017-02-27T16:49:43.913Z</time>
      </trkpt>
      <trkpt lat="43.81444" lon="4.06695">
        <ele>52</ele>
        <time>2017-02-27T16:48:49.220Z</time>
      </trkpt>
      <trkpt lat="43.81453" lon="4.06711">
        <ele>50</ele>
        <time>2017-02-27T16:47:55.366Z</time>
      </trkpt>
      <trkpt lat="43.81467" lon="4.06725">
        <ele>48</ele>
        <time>2017-02-27T16:46:50.575Z</time>
      </trkpt>
      <trkpt lat="43.81492" lon="4.06744">
        <ele>44.5</ele>
        <time>2017-02-27T16:45:11.123Z</time>
      </trkpt>
      <trkpt lat="43.81504" lon="4.06753">
        <ele>44.5</ele>
        <time>2017-02-27T16:44:18.494Z</time>
      </trkpt>
      <trkpt lat="43.81512" lon="4.06765">
        <ele>43</ele>
        <time>2017-02-27T16:43:37.656Z</time>
      </trkpt>
      <trkpt lat="43.81519" lon="4.06778">
        <ele>41.3</ele>
        <time>2017-02-27T16:42:57.092Z</time>
      </trkpt>
      <trkpt lat="43.81586" lon="4.06805">
        <ele>39.8</ele>
        <time>2017-02-27T16:38:43.335Z</time>
      </trkpt>
      <trkpt lat="43.81586" lon="4.06874">
        <ele>36.4</ele>
        <time>2017-02-27T16:37:03.622Z</time>
      </trkpt>
      <trkpt lat="43.81587" lon="4.06882">
        <ele>33</ele>
        <time>2017-02-27T16:35:23.910Z</time>
      </trkpt>
      <trkpt lat="43.81596" lon="4.06951">
        <ele>32</ele>
        <time>2017-02-27T16:37:23.910Z</time>
      </trkpt>
      <trkpt lat="43.81604" lon="4.07014">
        <ele>34</ele>
        <time>2017-02-27T16:39:23.910Z</time>
      </trkpt>
      <trkpt lat="43.81612" lon="4.07071">
        <ele>36</ele>
        <time>2017-02-27T16:41:23.910Z</time>
      </trkpt>
      <trkpt lat="43.81621" lon="4.07146">
        <ele>34</ele>
        <time>2017-02-27T16:43:23.910Z</time>
      </trkpt>
      <trkpt lat="43.81618" lon="4.07109">
        <ele>35</ele>
        <time>2017-02-27T16:44:31.719Z</time>
      </trkpt>
      <trkpt lat="43.81661" lon="4.07079">
        <ele>34</ele>
        <time>2017-02-27T16:45:23.910Z</time>
      </trkpt>
      <trkpt lat="43.81726" lon="4.07039">
        <ele>32</ele>
        <time>2017-02-27T16:47:23.910Z</time>
      </trkpt>
      <trkpt lat="43.81791" lon="4.07001">
        <ele>33</ele>
        <time>2017-02-27T16:49:23.910Z</time>
      </trkpt>
      <trkpt lat="43.81859" lon="4.06972">
        <ele>35</ele>
        <time>2017-02-27T16:51:23.910Z</time>
      </trkpt>
      <trkpt lat="43.81901" lon="4.06943">
        <ele>35</ele>
        <time>2017-02-27T16:53:23.910Z</time>
      </trkpt>
      <trkpt lat="43.81919" lon="4.06934">
        <ele>35</ele>
        <time>2017-02-27T16:55:23.910Z</time>
      </trkpt>
      <trkpt lat="43.81922" lon="4.06921">
        <ele>36</ele>
        <time>2017-02-27T16:57:23.910Z</time>
      </trkpt>
      <trkpt lat="43.81949" lon="4.06913">
        <ele>36</ele>
        <time>2017-02-27T16:59:23.910Z</time>
      </trkpt>
      <trkpt lat="43.81968" lon="4.06915">
        <ele>36</ele>
        <time>2017-02-27T17:01:23.910Z</time>
      </trkpt>
      <trkpt lat="43.81987" lon="4.06912">
        <ele>36</ele>
        <time>2017-02-27T17:03:23.910Z</time>
      </trkpt>
      <trkpt lat="43.81997" lon="4.06916">
        <ele>36</ele>
        <time>2017-02-27T17:05:23.910Z</time>
      </trkpt>
      <trkpt lat="43.82042" lon="4.06951">
        <ele>37</ele>
        <time>2017-02-27T17:07:23.910Z</time>
      </trkpt>
      <trkpt lat="43.82062" lon="4.06953">
        <ele>37</ele>
        <time>2017-02-27T17:09:23.910Z</time>
      </trkpt>
      <trkpt lat="43.82075" lon="4.06952">
        <ele>37</ele>
        <time>2017-02-27T17:11:23.910Z</time>
      </trkpt>
      <trkpt lat="43.82087" lon="4.06954">
        <ele>38</ele>
        <time>2017-02-27T17:13:23.910Z</time>
      </trkpt>
      <trkpt lat="43.82086" lon="4.06922">
        <ele>34</ele>
        <time>2017-02-27T17:15:23.910Z</time>
      </trkpt>
      <trkpt lat="43.82087" lon="4.06955">
        <ele>38</ele>
        <time>2017-02-27T17:17:23.910Z</time>
      </trkpt>
      <trkpt lat="43.82103" lon="4.06969">
        <ele>40</ele>
        <time>2017-02-27T17:19:23.910Z</time>
      </trkpt>
      <trkpt lat="43.82094" lon="4.06984">
        <ele>41</ele>
        <time>2017-02-27T17:21:23.910Z</time>
      </trkpt>
      <trkpt lat="43.82077" lon="4.06993">
        <ele>41</ele>
        <time>2017-02-27T17:23:23.910Z</time>
      </trkpt>
      <trkpt lat="43.82071" lon="4.07">
        <ele>41</ele>
        <time>2017-02-27T17:25:23.910Z</time>
      </trkpt>
      <trkpt lat="43.82009" lon="4.07019">
        <ele>41</ele>
        <time>2017-02-27T17:27:23.910Z</time>
      </trkpt>
      <trkpt lat="43.81953" lon="4.07041">
        <ele>40</ele>
        <time>2017-02-27T17:29:23.910Z</time>
      </trkpt>
      <trkpt lat="43.81867" lon="4.07084">
        <ele>37</ele>
        <time>2017-02-27T17:31:23.910Z</time>
      </trkpt>
      <trkpt lat="43.81803" lon="4.07114">
        <ele>37</ele>
        <time>2017-02-27T17:33:23.910Z</time>
      </trkpt>
      <trkpt lat="43.8176" lon="4.07141">
        <ele>36</ele>
        <time>2017-02-27T17:35:23.910Z</time>
      </trkpt>
      <trkpt lat="43.81727" lon="4.07165">
        <ele>35</ele>
        <time>2017-02-27T17:37:23.910Z</time>
      </trkpt>
      <trkpt lat="43.8175" lon="4.07249">
        <ele>44</ele>
        <time>2017-02-27T17:39:23.910Z</time>
      </trkpt>
      <trkpt lat="43.81747" lon="4.07274">
        <ele>46</ele>
        <time>2017-02-27T17:41:23.910Z</time>
      </trkpt>
      <trkpt lat="43.81709" lon="4.07324">
        <ele>49</ele>
        <time>2017-02-27T17:43:23.910Z</time>
      </trkpt>
      <trkpt lat="43.81675" lon="4.07378">
        <ele>50</ele>
        <time>2017-02-27T17:45:23.910Z</time>
      </trkpt>
      <trkpt lat="43.81658" lon="4.07403">
        <ele>50</ele>
        <time>2017-02-27T17:47:23.910Z</time>
      </trkpt>
      <trkpt lat="43.81651" lon="4.07446">
        <ele>52</ele>
        <time>2017-02-27T17:49:23.910Z</time>
      </trkpt>
      <trkpt lat="43.81645" lon="4.07476">
        <ele>53</ele>
        <time>2017-02-27T17:51:23.910Z</time>
      </trkpt>
      <trkpt lat="43.81635" lon="4.07489">
        <ele>53.3</ele>
        <time>2017-02-27T17:51:24.720Z</time>
      </trkpt>
      <trkpt lat="43.81632" lon="4.07491">
        <ele>53.3</ele>
        <time>2017-02-27T17:51:24.901Z</time>
      </trkpt>
      <trkpt lat="43.81622" lon="4.07492">
        <ele>52.8</ele>
        <time>2017-02-27T17:51:25.533Z</time>
      </trkpt>
      <trkpt lat="43.81616" lon="4.07489">
        <ele>52.3</ele>
        <time>2017-02-27T17:51:25.904Z</time>
      </trkpt>
      <trkpt lat="43.81603" lon="4.07484">
        <ele>51</ele>
        <time>2017-02-27T17:51:26.703Z</time>
      </trkpt>
      <trkpt lat="43.81592" lon="4.07491">
        <ele>50.8</ele>
        <time>2017-02-27T17:51:27.420Z</time>
      </trkpt>
      <trkpt lat="43.81574" lon="4.07495">
        <ele>50</ele>
        <time>2017-02-27T17:51:28.480Z</time>
      </trkpt>
      <trkpt lat="43.81562" lon="4.07511">
        <ele>50.3</ele>
        <time>2017-02-27T17:51:29.468Z</time>
      </trkpt>
      <trkpt lat="43.8155" lon="4.0752">
        <ele>50</ele>
        <time>2017-02-27T17:51:30.267Z</time>
      </trkpt>
      <trkpt lat="43.81529" lon="4.0752">
        <ele>48.8</ele>
        <time>2017-02-27T17:51:31.530Z</time>
      </trkpt>
      <trkpt lat="43.81513" lon="4.07523">
        <ele>48.3</ele>
        <time>2017-02-27T17:51:32.459Z</time>
      </trkpt>
      <trkpt lat="43.81503" lon="4.07532">
        <ele>48.3</ele>
        <time>2017-02-27T17:51:33.173Z</time>
      </trkpt>
      <trkpt lat="43.81491" lon="4.07545">
        <ele>49</ele>
        <time>2017-02-27T17:51:34.093Z</time>
      </trkpt>
      <trkpt lat="43.81477" lon="4.0757">
        <ele>50.5</ele>
        <time>2017-02-27T17:51:35.426Z</time>
      </trkpt>
      <trkpt lat="43.81479" lon="4.07547">
        <ele>48.8</ele>
        <time>2017-02-27T17:51:36.409Z</time>
      </trkpt>
      <trkpt lat="43.81477" lon="4.07534">
        <ele>47.8</ele>
        <time>2017-02-27T17:51:36.991Z</time>
      </trkpt>
      <trkpt lat="43.81471" lon="4.07524">
        <ele>47</ele>
        <time>2017-02-27T17:51:37.554Z</time>
      </trkpt>
      <trkpt lat="43.8146" lon="4.07528">
        <ele>47</ele>
        <time>2017-02-27T17:51:38.209Z</time>
      </trkpt>
      <trkpt lat="43.81419" lon="4.0753">
        <ele>46</ele>
        <time>2017-02-27T17:51:40.618Z</time>
      </trkpt>
      <trkpt lat="43.81408" lon="4.07533">
        <ele>46.3</ele>
        <time>2017-02-27T17:51:41.263Z</time>
      </trkpt>
      <trkpt lat="43.81387" lon="4.07538">
        <ele>46.3</ele>
        <time>2017-02-27T17:51:42.525Z</time>
      </trkpt>
      <trkpt lat="43.81352" lon="4.07547">
        <ele>46.5</ele>
        <time>2017-02-27T17:51:44.627Z</time>
      </trkpt>
      <trkpt lat="43.81334" lon="4.07558">
        <ele>46.8</ele>
        <time>2017-02-27T17:51:45.789Z</time>
      </trkpt>
      <trkpt lat="43.81303" lon="4.07566">
        <ele>46.5</ele>
        <time>2017-02-27T17:51:47.655Z</time>
      </trkpt>
      <trkpt lat="43.81282" lon="4.07577">
        <ele>46.5</ele>
        <time>2017-02-27T17:51:48.984Z</time>
      </trkpt>
      <trkpt lat="43.81267" lon="4.07587">
        <ele>46.3</ele>
        <time>2017-02-27T17:51:49.961Z</time>
      </trkpt>
      <trkpt lat="43.81261" lon="4.0759">
        <ele>46.3</ele>
        <time>2017-02-27T17:51:50.322Z</time>
      </trkpt>
      <trkpt lat="43.81261" lon="4.07592">
        <ele>46.3</ele>
        <time>2017-02-27T17:51:48.617Z</time>
      </trkpt>
      <trkpt lat="43.81261" lon="4.0759">
        <ele>46.3</ele>
        <time>2017-02-27T17:51:46.912Z</time>
      </trkpt>
      <trkpt lat="43.81258" lon="4.0759">
        <ele>46.3</ele>
        <time>2017-02-27T17:51:43.435Z</time>
      </trkpt>
      <trkpt lat="43.81245" lon="4.07594">
        <ele>45.8</ele>
        <time>2017-02-27T17:51:27.564Z</time>
      </trkpt>
      <trkpt lat="43.8123" lon="4.07592">
        <ele>45.3</ele>
        <time>2017-02-27T17:51:09.313Z</time>
      </trkpt>
      <trkpt lat="43.81221" lon="4.0759">
        <ele>44.8</ele>
        <time>2017-02-27T17:50:58.721Z</time>
      </trkpt>
      <trkpt lat="43.8122" lon="4.07589">
        <ele>44.8</ele>
        <time>2017-02-27T17:50:57.281Z</time>
      </trkpt>
      <trkpt lat="43.81213" lon="4.07589">
        <ele>44.5</ele>
        <time>2017-02-27T17:50:49.470Z</time>
      </trkpt>
      <trkpt lat="43.81198" lon="4.07585">
        <ele>44</ele>
        <time>2017-02-27T17:50:31.710Z</time>
      </trkpt>
      <trkpt lat="43.81159" lon="4.07566">
        <ele>42.3</ele>
        <time>2017-02-27T17:49:42.862Z</time>
      </trkpt>
      <trkpt lat="43.81143" lon="4.07563">
        <ele>41.8</ele>
        <time>2017-02-27T17:49:22.719Z</time>
      </trkpt>
      <trkpt lat="43.81137" lon="4.07558">
        <ele>41.5</ele>
        <time>2017-02-27T17:49:14.765Z</time>
      </trkpt>
      <trkpt lat="43.81116" lon="4.07557">
        <ele>40.8</ele>
        <time>2017-02-27T17:48:50.055Z</time>
      </trkpt>
      <trkpt lat="43.81088" lon="4.07551">
        <ele>39.8</ele>
        <time>2017-02-27T17:48:17.101Z</time>
      </trkpt>
      <trkpt lat="43.81082" lon="4.07549">
        <ele>39.5</ele>
        <time>2017-02-27T17:48:09.199Z</time>
      </trkpt>
      <trkpt lat="43.81065" lon="4.07555">
        <ele>39.3</ele>
        <time>2017-02-27T17:47:48.544Z</time>
      </trkpt>
      <trkpt lat="43.81034" lon="4.0756">
        <ele>38.8</ele>
        <time>2017-02-27T17:47:12.509Z</time>
      </trkpt>
      <trkpt lat="43.80999" lon="4.07566">
        <ele>39</ele>
        <time>2017-02-27T17:46:30.829Z</time>
      </trkpt>
      <trkpt lat="43.80964" lon="4.07579">
        <ele>38</ele>
        <time>2017-02-27T17:48:30.829Z</time>
      </trkpt>
      <trkpt lat="43.80958" lon="4.076">
        <ele>39</ele>
        <time>2017-02-27T17:50:30.829Z</time>
      </trkpt>
      <trkpt lat="43.8091" lon="4.07643">
        <ele>39.5</ele>
        <time>2017-02-27T17:47:32.545Z</time>
      </trkpt>
      <trkpt lat="43.80906" lon="4.07642">
        <ele>39.8</ele>
        <time>2017-02-27T17:47:19.013Z</time>
      </trkpt>
      <trkpt lat="43.80901" lon="4.07623">
        <ele>39.3</ele>
        <time>2017-02-27T17:46:33.470Z</time>
      </trkpt>
      <trkpt lat="43.80892" lon="4.07609">
        <ele>38.8</ele>
        <time>2017-02-27T17:45:51.814Z</time>
      </trkpt>
      <trkpt lat="43.80876" lon="4.07587">
        <ele>37.8</ele>
        <time>2017-02-27T17:44:41.764Z</time>
      </trkpt>
      <trkpt lat="43.80872" lon="4.07577">
        <ele>36.8</ele>
        <time>2017-02-27T17:44:15.635Z</time>
      </trkpt>
      <trkpt lat="43.80865" lon="4.07571">
        <ele>36.5</ele>
        <time>2017-02-27T17:43:50.612Z</time>
      </trkpt>
      <trkpt lat="43.80861" lon="4.0757">
        <ele>36.3</ele>
        <time>2017-02-27T17:43:35.618Z</time>
      </trkpt>
      <trkpt lat="43.80858" lon="4.07569">
        <ele>36.3</ele>
        <time>2017-02-27T17:43:26.701Z</time>
      </trkpt>
      <trkpt lat="43.80848" lon="4.07571">
        <ele>36.5</ele>
        <time>2017-02-27T17:43:31.507Z</time>
      </trkpt>
      <trkpt lat="43.8084" lon="4.07573">
        <ele>36.8</ele>
        <time>2017-02-27T17:43:35.176Z</time>
      </trkpt>
      <trkpt lat="43.80824" lon="4.07578">
        <ele>37</ele>
        <time>2017-02-27T17:43:42.988Z</time>
      </trkpt>
      <trkpt lat="43.80791" lon="4.07596">
        <ele>37.3</ele>
        <time>2017-02-27T17:43:59.486Z</time>
      </trkpt>
      <trkpt lat="43.80772" lon="4.07604">
        <ele>37.3</ele>
        <time>2017-02-27T17:44:08.862Z</time>
      </trkpt>
      <trkpt lat="43.80762" lon="4.0761">
        <ele>37.3</ele>
        <time>2017-02-27T17:44:14.157Z</time>
      </trkpt>
      <trkpt lat="43.80722" lon="4.07636">
        <ele>38.3</ele>
        <time>2017-02-27T17:44:34.624Z</time>
      </trkpt>
      <trkpt lat="43.80713" lon="4.07641">
        <ele>38.5</ele>
        <time>2017-02-27T17:44:39.400Z</time>
      </trkpt>
      <trkpt lat="43.80707" lon="4.07638">
        <ele>37.8</ele>
        <time>2017-02-27T17:44:42.579Z</time>
      </trkpt>
      <trkpt lat="43.80705" lon="4.07633">
        <ele>37.5</ele>
        <time>2017-02-27T17:44:44.344Z</time>
      </trkpt>
      <trkpt lat="43.80703" lon="4.07626">
        <ele>36.8</ele>
        <time>2017-02-27T17:44:47.088Z</time>
      </trkpt>
      <trkpt lat="43.807" lon="4.07622">
        <ele>36.3</ele>
        <time>2017-02-27T17:44:48.769Z</time>
      </trkpt>
      <trkpt lat="43.80696" lon="4.07621">
        <ele>36</ele>
        <time>2017-02-27T17:44:51.002Z</time>
      </trkpt>
      <trkpt lat="43.80676" lon="4.0763">
        <ele>36</ele>
        <time>2017-02-27T17:45:00.678Z</time>
      </trkpt>
      <trkpt lat="43.80663" lon="4.07634">
        <ele>35.8</ele>
        <time>2017-02-27T17:45:06.899Z</time>
      </trkpt>
      <trkpt lat="43.80657" lon="4.07634">
        <ele>35.5</ele>
        <time>2017-02-27T17:45:09.730Z</time>
      </trkpt>
      <trkpt lat="43.80653" lon="4.07633">
        <ele>35.3</ele>
        <time>2017-02-27T17:45:11.871Z</time>
      </trkpt>
      <trkpt lat="43.80643" lon="4.07625">
        <ele>34.3</ele>
        <time>2017-02-27T17:45:17.207Z</time>
      </trkpt>
      <trkpt lat="43.80636" lon="4.07621">
        <ele>33.8</ele>
        <time>2017-02-27T17:45:20.827Z</time>
      </trkpt>
      <trkpt lat="43.80624" lon="4.07618">
        <ele>33.3</ele>
        <time>2017-02-27T17:45:26.295Z</time>
      </trkpt>
      <trkpt lat="43.80603" lon="4.07623">
        <ele>32.8</ele>
        <time>2017-02-27T17:45:36.265Z</time>
      </trkpt>
      <trkpt lat="43.80539" lon="4.0765">
        <ele>32.5</ele>
        <time>2017-02-27T17:46:07.928Z</time>
      </trkpt>
      <trkpt lat="43.80521" lon="4.07657">
        <ele>32.5</ele>
        <time>2017-02-27T17:46:16.574Z</time>
      </trkpt>
      <trkpt lat="43.80504" lon="4.07661">
        <ele>32.5</ele>
        <time>2017-02-27T17:46:25.078Z</time>
      </trkpt>
      <trkpt lat="43.80489" lon="4.07649">
        <ele>32</ele>
        <time>2017-02-27T17:46:33.062Z</time>
      </trkpt>
      <trkpt lat="43.80481" lon="4.07636">
        <ele>32</ele>
        <time>2017-02-27T17:48:33.062Z</time>
      </trkpt>
      <trkpt lat="43.80476" lon="4.07606">
        <ele>30</ele>
        <time>2017-02-27T17:50:33.062Z</time>
      </trkpt>
      <trkpt lat="43.80472" lon="4.07564">
        <ele>29</ele>
        <time>2017-02-27T17:52:33.062Z</time>
      </trkpt>
      <trkpt lat="43.80467" lon="4.07533">
        <ele>29</ele>
        <time>2017-02-27T17:54:33.062Z</time>
      </trkpt>
      <trkpt lat="43.80479" lon="4.07537">
        <ele>29</ele>
        <time>2017-02-27T17:56:33.062Z</time>
      </trkpt>
      <trkpt lat="43.80503" lon="4.0752">
        <ele>30</ele>
        <time>2017-02-27T17:58:33.062Z</time>
      </trkpt>
      <trkpt lat="43.80513" lon="4.07508">
        <ele>30</ele>
        <time>2017-02-27T18:00:33.062Z</time>
      </trkpt>
      <trkpt lat="43.80527" lon="4.07471">
        <ele>29</ele>
        <time>2017-02-27T18:02:33.062Z</time>
      </trkpt>
      <trkpt lat="43.8051" lon="4.07512">
        <ele>30</ele>
        <time>2017-02-27T18:04:33.062Z</time>
      </trkpt>
      <trkpt lat="43.80492" lon="4.07526">
        <ele>30</ele>
        <time>2017-02-27T18:06:33.062Z</time>
      </trkpt>
      <trkpt lat="43.80469" lon="4.07535">
        <ele>29</ele>
        <time>2017-02-27T18:08:33.062Z</time>
      </trkpt>
      <trkpt lat="43.8047" lon="4.07586">
        <ele>29</ele>
        <time>2017-02-27T18:10:33.062Z</time>
      </trkpt>
      <trkpt lat="43.80478" lon="4.07614">
        <ele>30</ele>
        <time>2017-02-27T18:12:33.062Z</time>
      </trkpt>
      <trkpt lat="43.80482" lon="4.07639">
        <ele>32</ele>
        <time>2017-02-27T18:14:33.062Z</time>
      </trkpt>
      <trkpt lat="43.80489" lon="4.07653">
        <ele>32</ele>
        <time>2017-02-27T18:16:33.062Z</time>
      </trkpt>
      <trkpt lat="43.80488" lon="4.07688">
        <ele>33</ele>
        <time>2017-02-27T18:17:00.026Z</time>
      </trkpt>
      <trkpt lat="43.80488" lon="4.0769">
        <ele>33</ele>
        <time>2017-02-27T18:17:01.603Z</time>
      </trkpt>
      <trkpt lat="43.80476" lon="4.07711">
        <ele>33</ele>
        <time>2017-02-27T18:17:23.148Z</time>
      </trkpt>
      <trkpt lat="43.80468" lon="4.07727">
        <ele>33</ele>
        <time>2017-02-27T18:17:38.413Z</time>
      </trkpt>
      <trkpt lat="43.80459" lon="4.07752">
        <ele>32.8</ele>
        <time>2017-02-27T18:18:00.314Z</time>
      </trkpt>
      <trkpt lat="43.80454" lon="4.07771">
        <ele>32.8</ele>
        <time>2017-02-27T18:18:16.332Z</time>
      </trkpt>
      <trkpt lat="43.80443" lon="4.07804">
        <ele>32.5</ele>
        <time>2017-02-27T18:18:44.290Z</time>
      </trkpt>
      <trkpt lat="43.80436" lon="4.07813">
        <ele>32.3</ele>
        <time>2017-02-27T18:18:55.193Z</time>
      </trkpt>
      <trkpt lat="43.80427" lon="4.07816">
        <ele>32.3</ele>
        <time>2017-02-27T18:19:04.403Z</time>
      </trkpt>
      <trkpt lat="43.80425" lon="4.07817">
        <ele>32.3</ele>
        <time>2017-02-27T18:19:06.969Z</time>
      </trkpt>
      <trkpt lat="43.80415" lon="4.07823">
        <ele>32</ele>
        <time>2017-02-27T18:19:18.368Z</time>
      </trkpt>
      <trkpt lat="43.8041" lon="4.07842">
        <ele>32</ele>
        <time>2017-02-27T18:19:34.916Z</time>
      </trkpt>
      <trkpt lat="43.80415" lon="4.07877">
        <ele>33</ele>
        <time>2017-02-27T18:20:02.852Z</time>
      </trkpt>
      <trkpt lat="43.80407" lon="4.0789">
        <ele>33</ele>
        <time>2017-02-27T18:20:15.949Z</time>
      </trkpt>
      <trkpt lat="43.80387" lon="4.07909">
        <ele>33</ele>
        <time>2017-02-27T18:20:42.021Z</time>
      </trkpt>
      <trkpt lat="43.80391" lon="4.07916">
        <ele>33.3</ele>
        <time>2017-02-27T18:20:48.167Z</time>
      </trkpt>
      <trkpt lat="43.80394" lon="4.07927">
        <ele>33.5</ele>
        <time>2017-02-27T18:20:57.744Z</time>
      </trkpt>
      <trkpt lat="43.80385" lon="4.07936">
        <ele>33.5</ele>
        <time>2017-02-27T18:21:09.937Z</time>
      </trkpt>
      <trkpt lat="43.80375" lon="4.07946">
        <ele>33.5</ele>
        <time>2017-02-27T18:21:23.596Z</time>
      </trkpt>
      <trkpt lat="43.80373" lon="4.07947">
        <ele>33.5</ele>
        <time>2017-02-27T18:21:25.731Z</time>
      </trkpt>
      <trkpt lat="43.80363" lon="4.07958">
        <ele>33.5</ele>
        <time>2017-02-27T18:21:39.438Z</time>
      </trkpt>
      <trkpt lat="43.80323" lon="4.07996">
        <ele>34.3</ele>
        <time>2017-02-27T18:22:31.755Z</time>
      </trkpt>
      <trkpt lat="43.80322" lon="4.07997">
        <ele>34.3</ele>
        <time>2017-02-27T18:22:32.956Z</time>
      </trkpt>
      <trkpt lat="43.80322" lon="4.07998">
        <ele>34.3</ele>
        <time>2017-02-27T18:22:33.022Z</time>
      </trkpt>
      <trkpt lat="43.80323" lon="4.08004">
        <ele>34.3</ele>
        <time>2017-02-27T18:22:33.270Z</time>
      </trkpt>
      <trkpt lat="43.80317" lon="4.08025">
        <ele>34.3</ele>
        <time>2017-02-27T18:22:34.270Z</time>
      </trkpt>
      <trkpt lat="43.80324" lon="4.08017">
        <ele>34</ele>
        <time>2017-02-27T18:22:34.853Z</time>
      </trkpt>
      <trkpt lat="43.80331" lon="4.08007">
        <ele>33.8</ele>
        <time>2017-02-27T18:22:35.452Z</time>
      </trkpt>
      <trkpt lat="43.80333" lon="4.08002">
        <ele>33.8</ele>
        <time>2017-02-27T18:22:35.715Z</time>
      </trkpt>
      <trkpt lat="43.80333" lon="4.07994">
        <ele>33.8</ele>
        <time>2017-02-27T18:22:36.075Z</time>
      </trkpt>
      <trkpt lat="43.80332" lon="4.07977">
        <ele>33.5</ele>
        <time>2017-02-27T18:22:36.799Z</time>
      </trkpt>
      <trkpt lat="43.80329" lon="4.07956">
        <ele>33</ele>
        <time>2017-02-27T18:22:37.741Z</time>
      </trkpt>
      <trkpt lat="43.8033" lon="4.07937">
        <ele>32.5</ele>
        <time>2017-02-27T18:22:38.572Z</time>
      </trkpt>
      <trkpt lat="43.8033" lon="4.0793">
        <ele>31.8</ele>
        <time>2017-02-27T18:22:38.889Z</time>
      </trkpt>
      <trkpt lat="43.80328" lon="4.07897">
        <ele>31.8</ele>
        <time>2017-02-27T18:22:40.345Z</time>
      </trkpt>
      <trkpt lat="43.80323" lon="4.07892">
        <ele>31.8</ele>
        <time>2017-02-27T18:22:40.738Z</time>
      </trkpt>
      <trkpt lat="43.80325" lon="4.0787">
        <ele>31.3</ele>
        <time>2017-02-27T18:22:41.729Z</time>
      </trkpt>
      <trkpt lat="43.80326" lon="4.07844">
        <ele>30.5</ele>
        <time>2017-02-27T18:22:42.890Z</time>
      </trkpt>
      <trkpt lat="43.80328" lon="4.07825">
        <ele>30</ele>
        <time>2017-02-27T18:22:43.703Z</time>
      </trkpt>
      <trkpt lat="43.80325" lon="4.07805">
        <ele>30</ele>
        <time>2017-02-27T18:22:44.611Z</time>
      </trkpt>
      <trkpt lat="43.80309" lon="4.07765">
        <ele>30.3</ele>
        <time>2017-02-27T18:22:46.590Z</time>
      </trkpt>
      <trkpt lat="43.80305" lon="4.07763">
        <ele>30.5</ele>
        <time>2017-02-27T18:22:46.866Z</time>
      </trkpt>
      <trkpt lat="43.80292" lon="4.07758">
        <ele>30.5</ele>
        <time>2017-02-27T18:22:47.691Z</time>
      </trkpt>
      <trkpt lat="43.80273" lon="4.07754">
        <ele>30.8</ele>
        <time>2017-02-27T18:23:19.733Z</time>
      </trkpt>
      <trkpt lat="43.80261" lon="4.07748">
        <ele>30.8</ele>
        <time>2017-02-27T18:23:39.982Z</time>
      </trkpt>
      <trkpt lat="43.80252" lon="4.07743">
        <ele>30.8</ele>
        <time>2017-02-27T18:23:56.638Z</time>
      </trkpt>
      <trkpt lat="43.80238" lon="4.07743">
        <ele>30.5</ele>
        <time>2017-02-27T18:24:19.757Z</time>
      </trkpt>
      <trkpt lat="43.80225" lon="4.07747">
        <ele>30.3</ele>
        <time>2017-02-27T18:24:41.402Z</time>
      </trkpt>
      <trkpt lat="43.8021" lon="4.07757">
        <ele>30.3</ele>
        <time>2017-02-27T18:25:08.535Z</time>
      </trkpt>
      <trkpt lat="43.80184" lon="4.07786">
        <ele>31.8</ele>
        <time>2017-02-27T18:26:03.520Z</time>
      </trkpt>
      <trkpt lat="43.80156" lon="4.07798">
        <ele>32.8</ele>
        <time>2017-02-27T18:26:52.739Z</time>
      </trkpt>
      <trkpt lat="43.80135" lon="4.07802">
        <ele>33</ele>
        <time>2017-02-27T18:27:28.156Z</time>
      </trkpt>
      <trkpt lat="43.80057" lon="4.078">
        <ele>32.8</ele>
        <time>2017-02-27T18:29:36.637Z</time>
      </trkpt>
      <trkpt lat="43.80001" lon="4.07809">
        <ele>33.5</ele>
        <time>2017-02-27T18:31:10.040Z</time>
      </trkpt>
      <trkpt lat="43.79982" lon="4.07814">
        <ele>33.8</ele>
        <time>2017-02-27T18:31:42.158Z</time>
      </trkpt>
      <trkpt lat="43.7994" lon="4.07816">
        <ele>33</ele>
        <time>2017-02-27T18:32:51.238Z</time>
      </trkpt>
      <trkpt lat="43.79856" lon="4.07828">
        <ele>32</ele>
        <time>2017-02-27T18:35:10.945Z</time>
      </trkpt>
      <trkpt lat="43.79837" lon="4.07833">
        <ele>32</ele>
        <time>2017-02-27T18:35:42.971Z</time>
      </trkpt>
      <trkpt lat="43.79834" lon="4.07833">
        <ele>31.5</ele>
        <time>2017-02-27T18:35:47.435Z</time>
      </trkpt>
      <trkpt lat="43.79832" lon="4.07818">
        <ele>31</ele>
        <time>2017-02-27T18:36:05.440Z</time>
      </trkpt>
      <trkpt lat="43.79821" lon="4.07813">
        <ele>31</ele>
        <time>2017-02-27T18:38:05.440Z</time>
      </trkpt>
      <trkpt lat="43.79812" lon="4.07807">
        <ele>30</ele>
        <time>2017-02-27T18:40:05.440Z</time>
      </trkpt>
      <trkpt lat="43.79804" lon="4.07764">
        <ele>28</ele>
        <time>2017-02-27T18:42:05.440Z</time>
      </trkpt>
      <trkpt lat="43.79796" lon="4.07742">
        <ele>27</ele>
        <time>2017-02-27T18:44:05.440Z</time>
      </trkpt>
      <trkpt lat="43.79788" lon="4.07711">
        <ele>28</ele>
        <time>2017-02-27T18:46:05.440Z</time>
      </trkpt>
      <trkpt lat="43.79796" lon="4.07742">
        <ele>27</ele>
        <time>2017-02-27T18:48:05.440Z</time>
      </trkpt>
      <trkpt lat="43.79805" lon="4.07763">
        <ele>28</ele>
        <time>2017-02-27T18:50:05.440Z</time>
      </trkpt>
      <trkpt lat="43.79812" lon="4.07808">
        <ele>30</ele>
        <time>2017-02-27T18:52:05.440Z</time>
      </trkpt>
      <trkpt lat="43.79808" lon="4.07834">
        <ele>32</ele>
        <time>2017-02-27T18:54:05.440Z</time>
      </trkpt>
      <trkpt lat="43.79789" lon="4.07839">
        <ele>32</ele>
        <time>2017-02-27T18:56:05.440Z</time>
      </trkpt>
      <trkpt lat="43.79778" lon="4.07857">
        <ele>32</ele>
        <time>2017-02-27T18:58:05.440Z</time>
      </trkpt>
      <trkpt lat="43.79749" lon="4.07871">
        <ele>32</ele>
        <time>2017-02-27T19:00:05.440Z</time>
      </trkpt>
      <trkpt lat="43.79707" lon="4.0788">
        <ele>31</ele>
        <time>2017-02-27T19:02:05.440Z</time>
      </trkpt>
      <trkpt lat="43.79662" lon="4.07884">
        <ele>29</ele>
        <time>2017-02-27T19:04:05.440Z</time>
      </trkpt>
      <trkpt lat="43.79598" lon="4.07893">
        <ele>26</ele>
        <time>2017-02-27T19:06:05.440Z</time>
      </trkpt>
      <trkpt lat="43.79561" lon="4.079">
        <ele>25</ele>
        <time>2017-02-27T19:08:05.440Z</time>
      </trkpt>
      <trkpt lat="43.79456" lon="4.0794">
        <ele>26</ele>
        <time>2017-02-27T19:10:05.440Z</time>
      </trkpt>
      <trkpt lat="43.79455" lon="4.07968">
        <ele>26</ele>
        <time>2017-02-27T19:12:05.440Z</time>
      </trkpt>
      <trkpt lat="43.79454" lon="4.08013">
        <ele>27.5</ele>
        <time>2017-02-27T19:13:06.390Z</time>
      </trkpt>
      <trkpt lat="43.79448" lon="4.08022">
        <ele>27.5</ele>
        <time>2017-02-27T19:13:23.942Z</time>
      </trkpt>
      <trkpt lat="43.79414" lon="4.08049">
        <ele>27</ele>
        <time>2017-02-27T19:14:36.408Z</time>
      </trkpt>
      <trkpt lat="43.79364" lon="4.08078">
        <ele>26.5</ele>
        <time>2017-02-27T19:16:18.627Z</time>
      </trkpt>
      <trkpt lat="43.79293" lon="4.08141">
        <ele>25.8</ele>
        <time>2017-02-27T19:18:58.414Z</time>
      </trkpt>
      <trkpt lat="43.79281" lon="4.08156">
        <ele>25.5</ele>
        <time>2017-02-27T19:19:29.154Z</time>
      </trkpt>
      <trkpt lat="43.79271" lon="4.08171">
        <ele>26.8</ele>
        <time>2017-02-27T19:19:56.972Z</time>
      </trkpt>
      <trkpt lat="43.79219" lon="4.08245">
        <ele>26.8</ele>
        <time>2017-02-27T19:22:16.877Z</time>
      </trkpt>
      <trkpt lat="43.79184" lon="4.08282">
        <ele>27.3</ele>
        <time>2017-02-27T19:23:40.918Z</time>
      </trkpt>
      <trkpt lat="43.79134" lon="4.08342">
        <ele>27.3</ele>
        <time>2017-02-27T19:25:45.114Z</time>
      </trkpt>
      <trkpt lat="43.79114" lon="4.08327">
        <ele>27</ele>
        <time>2017-02-27T19:26:28.481Z</time>
      </trkpt>
      <trkpt lat="43.79088" lon="4.0831">
        <ele>26</ele>
        <time>2017-02-27T19:28:28.481Z</time>
      </trkpt>
      <trkpt lat="43.79061" lon="4.08298">
        <ele>25.8</ele>
        <time>2017-02-27T19:29:06.244Z</time>
      </trkpt>
      <trkpt lat="43.79058" lon="4.08298">
        <ele>25.8</ele>
        <time>2017-02-27T19:29:09.981Z</time>
      </trkpt>
      <trkpt lat="43.79048" lon="4.08307">
        <ele>26</ele>
        <time>2017-02-27T19:29:26.350Z</time>
      </trkpt>
      <trkpt lat="43.79043" lon="4.08324">
        <ele>26.3</ele>
        <time>2017-02-27T19:29:44.254Z</time>
      </trkpt>
      <trkpt lat="43.79046" lon="4.08341">
        <ele>26.5</ele>
        <time>2017-02-27T19:30:00.524Z</time>
      </trkpt>
      <trkpt lat="43.79049" lon="4.08349">
        <ele>26.5</ele>
        <time>2017-02-27T19:30:09.994Z</time>
      </trkpt>
      <trkpt lat="43.79061" lon="4.0838">
        <ele>26.5</ele>
        <time>2017-02-27T19:30:43.849Z</time>
      </trkpt>
      <trkpt lat="43.79068" lon="4.08406">
        <ele>26.8</ele>
        <time>2017-02-27T19:31:09.816Z</time>
      </trkpt>
      <trkpt lat="43.79062" lon="4.08411">
        <ele>26.3</ele>
        <time>2017-02-27T19:31:18.544Z</time>
      </trkpt>
      <trkpt lat="43.78952" lon="4.08505">
        <ele>27</ele>
        <time>2017-02-27T19:34:11.446Z</time>
      </trkpt>
      <trkpt lat="43.78891" lon="4.08569">
        <ele>26</ele>
        <time>2017-02-27T19:36:11.446Z</time>
      </trkpt>
      <trkpt lat="43.78851" lon="4.08618">
        <ele>27</ele>
        <time>2017-02-27T19:38:11.446Z</time>
      </trkpt>
      <trkpt lat="43.78837" lon="4.08638">
        <ele>27</ele>
        <time>2017-02-27T19:40:11.446Z</time>
      </trkpt>
      <trkpt lat="43.78795" lon="4.08672">
        <ele>28</ele>
        <time>2017-02-27T19:42:11.446Z</time>
      </trkpt>
      <trkpt lat="43.78742" lon="4.08708">
        <ele>30</ele>
        <time>2017-02-27T19:44:11.446Z</time>
      </trkpt>
      <trkpt lat="43.78686" lon="4.08749">
        <ele>29.8</ele>
        <time>2017-02-27T19:46:04.147Z</time>
      </trkpt>
      <trkpt lat="43.78672" lon="4.08758">
        <ele>30</ele>
        <time>2017-02-27T19:46:30.656Z</time>
      </trkpt>
      <trkpt lat="43.78667" lon="4.08742">
        <ele>29.8</ele>
        <time>2017-02-27T19:46:53.204Z</time>
      </trkpt>
      <trkpt lat="43.78663" lon="4.08731">
        <ele>30</ele>
        <time>2017-02-27T19:47:09.722Z</time>
      </trkpt>
      <trkpt lat="43.78662" lon="4.08728">
        <ele>30</ele>
        <time>2017-02-27T19:47:13.603Z</time>
      </trkpt>
      <trkpt lat="43.7864" lon="4.08665">
        <ele>29.8</ele>
        <time>2017-02-27T19:48:42.761Z</time>
      </trkpt>
      <trkpt lat="43.78682" lon="4.08631">
        <ele>29</ele>
        <time>2017-02-27T19:50:09.362Z</time>
      </trkpt>
      <trkpt lat="43.78691" lon="4.08624">
        <ele>29</ele>
        <time>2017-02-27T19:50:27.493Z</time>
      </trkpt>
      <trkpt lat="43.78681" lon="4.08596">
        <ele>28.8</ele>
        <time>2017-02-27T19:51:08.519Z</time>
      </trkpt>
      <trkpt lat="43.78672" lon="4.0857">
        <ele>28.5</ele>
        <time>2017-02-27T19:51:44.590Z</time>
      </trkpt>
      <trkpt lat="43.78674" lon="4.08569">
        <ele>28.5</ele>
        <time>2017-02-27T19:51:48.681Z</time>
      </trkpt>
    </trkseg>
  </trk>
</gpx>